<?xml version="1.0" encoding="UTF-8" standalone="no" ?>
<gpx xmlns="http://www.topografix.com/GPX/1/1" xmlns:xsi="http://www.w3.org/2001/XMLSchema-instance" xsi:schemaLocation="http://www.topografix.com/GPX/1/1 http://www.topografix.com/GPX/1/1/gpx.xsd" version="1.1" creator="VisuGPX - https://www.visugpx.com">
  <metadata>
    <name>Retour du cirque de la Glere.</name>
  </metadata>
  <trk>
    <name><![CDATA[Mon activité]]></name>
    <trkseg>
      <trkpt lat="42.71108" lon="0.61703">
        <ele>1599</ele>
        <time>2026-07-05T09:56:29+02:00</time>
      </trkpt>
      <trkpt lat="42.7111" lon="0.61697">
        <ele>1599</ele>
        <time>2026-07-05T09:56:37+02:00</time>
      </trkpt>
      <trkpt lat="42.71117" lon="0.61692">
        <ele>1598</ele>
        <time>2026-07-05T09:56:44+02:00</time>
      </trkpt>
      <trkpt lat="42.71122" lon="0.61688">
        <ele>1599.6006</ele>
        <time>2026-07-05T09:56:48+02:00</time>
      </trkpt>
      <trkpt lat="42.71126" lon="0.61684">
        <ele>1597.2002</ele>
        <time>2026-07-05T09:56:53+02:00</time>
      </trkpt>
      <trkpt lat="42.7113" lon="0.61681">
        <ele>1598.9004</ele>
        <time>2026-07-05T09:57:06+02:00</time>
      </trkpt>
      <trkpt lat="42.71135" lon="0.61679">
        <ele>1600.7998</ele>
        <time>2026-07-05T09:57:12+02:00</time>
      </trkpt>
      <trkpt lat="42.7114" lon="0.61676">
        <ele>1600.1006</ele>
        <time>2026-07-05T09:57:19+02:00</time>
      </trkpt>
      <trkpt lat="42.71145" lon="0.61674">
        <ele>1600.1006</ele>
        <time>2026-07-05T09:57:28+02:00</time>
      </trkpt>
      <trkpt lat="42.71149" lon="0.61669">
        <ele>1601.9004</ele>
        <time>2026-07-05T09:57:33+02:00</time>
      </trkpt>
      <trkpt lat="42.71155" lon="0.61668">
        <ele>1600.7998</ele>
        <time>2026-07-05T09:57:38+02:00</time>
      </trkpt>
      <trkpt lat="42.71159" lon="0.61669">
        <ele>1602.5</ele>
        <time>2026-07-05T09:57:43+02:00</time>
      </trkpt>
      <trkpt lat="42.71164" lon="0.61665">
        <ele>1602.5</ele>
        <time>2026-07-05T09:57:48+02:00</time>
      </trkpt>
      <trkpt lat="42.71168" lon="0.61661">
        <ele>1604.1006</ele>
        <time>2026-07-05T09:57:53+02:00</time>
      </trkpt>
      <trkpt lat="42.71173" lon="0.61662">
        <ele>1605.6006</ele>
        <time>2026-07-05T09:57:59+02:00</time>
      </trkpt>
      <trkpt lat="42.71178" lon="0.61659">
        <ele>1603.7002</ele>
        <time>2026-07-05T09:58:06+02:00</time>
      </trkpt>
      <trkpt lat="42.71183" lon="0.6166">
        <ele>1603.7002</ele>
        <time>2026-07-05T09:58:10+02:00</time>
      </trkpt>
      <trkpt lat="42.71188" lon="0.61658">
        <ele>1604.7998</ele>
        <time>2026-07-05T09:58:15+02:00</time>
      </trkpt>
      <trkpt lat="42.71193" lon="0.61656">
        <ele>1605.7002</ele>
        <time>2026-07-05T09:58:21+02:00</time>
      </trkpt>
      <trkpt lat="42.71198" lon="0.61656">
        <ele>1606.5</ele>
        <time>2026-07-05T09:58:27+02:00</time>
      </trkpt>
      <trkpt lat="42.71202" lon="0.61652">
        <ele>1603.6006</ele>
        <time>2026-07-05T09:58:34+02:00</time>
      </trkpt>
      <trkpt lat="42.71207" lon="0.6165">
        <ele>1603.6006</ele>
        <time>2026-07-05T09:58:41+02:00</time>
      </trkpt>
      <trkpt lat="42.71212" lon="0.61647">
        <ele>1603.7998</ele>
        <time>2026-07-05T09:58:46+02:00</time>
      </trkpt>
      <trkpt lat="42.71217" lon="0.61647">
        <ele>1603.7002</ele>
        <time>2026-07-05T09:58:53+02:00</time>
      </trkpt>
      <trkpt lat="42.71221" lon="0.6165">
        <ele>1603.7002</ele>
        <time>2026-07-05T09:59:02+02:00</time>
      </trkpt>
      <trkpt lat="42.71225" lon="0.61652">
        <ele>1603.2998</ele>
        <time>2026-07-05T09:59:08+02:00</time>
      </trkpt>
      <trkpt lat="42.71229" lon="0.61654">
        <ele>1606.1006</ele>
        <time>2026-07-05T09:59:15+02:00</time>
      </trkpt>
      <trkpt lat="42.71235" lon="0.61653">
        <ele>1605.2998</ele>
        <time>2026-07-05T09:59:21+02:00</time>
      </trkpt>
      <trkpt lat="42.7124" lon="0.61655">
        <ele>1604.2998</ele>
        <time>2026-07-05T09:59:29+02:00</time>
      </trkpt>
      <trkpt lat="42.71245" lon="0.61654">
        <ele>1604.2998</ele>
        <time>2026-07-05T09:59:34+02:00</time>
      </trkpt>
      <trkpt lat="42.7125" lon="0.61656">
        <ele>1603.2002</ele>
        <time>2026-07-05T09:59:39+02:00</time>
      </trkpt>
      <trkpt lat="42.71255" lon="0.61658">
        <ele>1601.9004</ele>
        <time>2026-07-05T09:59:47+02:00</time>
      </trkpt>
      <trkpt lat="42.71259" lon="0.61661">
        <ele>1600.4004</ele>
        <time>2026-07-05T09:59:53+02:00</time>
      </trkpt>
      <trkpt lat="42.71264" lon="0.61663">
        <ele>1604</ele>
        <time>2026-07-05T09:59:58+02:00</time>
      </trkpt>
      <trkpt lat="42.71268" lon="0.61667">
        <ele>1602.2998</ele>
        <time>2026-07-05T10:00:05+02:00</time>
      </trkpt>
      <trkpt lat="42.71274" lon="0.61668">
        <ele>1600.5</ele>
        <time>2026-07-05T10:00:11+02:00</time>
      </trkpt>
      <trkpt lat="42.71278" lon="0.61669">
        <ele>1598.5</ele>
        <time>2026-07-05T10:00:16+02:00</time>
      </trkpt>
      <trkpt lat="42.71282" lon="0.61671">
        <ele>1602.2002</ele>
        <time>2026-07-05T10:00:21+02:00</time>
      </trkpt>
      <trkpt lat="42.71287" lon="0.61673">
        <ele>1600.1006</ele>
        <time>2026-07-05T10:00:27+02:00</time>
      </trkpt>
      <trkpt lat="42.7129" lon="0.61679">
        <ele>1603.9004</ele>
        <time>2026-07-05T10:00:38+02:00</time>
      </trkpt>
      <trkpt lat="42.71295" lon="0.61682">
        <ele>1601.7002</ele>
        <time>2026-07-05T10:00:43+02:00</time>
      </trkpt>
      <trkpt lat="42.71295" lon="0.6169">
        <ele>1605.7998</ele>
        <time>2026-07-05T10:00:51+02:00</time>
      </trkpt>
      <trkpt lat="42.71294" lon="0.61696">
        <ele>1610.1006</ele>
        <time>2026-07-05T10:01:00+02:00</time>
      </trkpt>
      <trkpt lat="42.71294" lon="0.61702">
        <ele>1610.1006</ele>
        <time>2026-07-05T10:01:07+02:00</time>
      </trkpt>
      <trkpt lat="42.71294" lon="0.61708">
        <ele>1614.7002</ele>
        <time>2026-07-05T10:01:12+02:00</time>
      </trkpt>
      <trkpt lat="42.71296" lon="0.61715">
        <ele>1619.5</ele>
        <time>2026-07-05T10:01:17+02:00</time>
      </trkpt>
      <trkpt lat="42.71299" lon="0.61719">
        <ele>1617.4004</ele>
        <time>2026-07-05T10:01:24+02:00</time>
      </trkpt>
      <trkpt lat="42.71306" lon="0.61722">
        <ele>1620.2998</ele>
        <time>2026-07-05T10:01:28+02:00</time>
      </trkpt>
      <trkpt lat="42.7131" lon="0.61726">
        <ele>1618.2002</ele>
        <time>2026-07-05T10:01:33+02:00</time>
      </trkpt>
      <trkpt lat="42.71312" lon="0.61733">
        <ele>1623.4004</ele>
        <time>2026-07-05T10:01:43+02:00</time>
      </trkpt>
      <trkpt lat="42.71315" lon="0.61738">
        <ele>1623.4004</ele>
        <time>2026-07-05T10:02:09+02:00</time>
      </trkpt>
      <trkpt lat="42.71318" lon="0.61743">
        <ele>1626.5</ele>
        <time>2026-07-05T10:02:16+02:00</time>
      </trkpt>
      <trkpt lat="42.71324" lon="0.61746">
        <ele>1624.2002</ele>
        <time>2026-07-05T10:02:21+02:00</time>
      </trkpt>
      <trkpt lat="42.71328" lon="0.6175">
        <ele>1627.2998</ele>
        <time>2026-07-05T10:02:29+02:00</time>
      </trkpt>
      <trkpt lat="42.71333" lon="0.61752">
        <ele>1627.2998</ele>
        <time>2026-07-05T10:02:33+02:00</time>
      </trkpt>
      <trkpt lat="42.71334" lon="0.61759">
        <ele>1632.6006</ele>
        <time>2026-07-05T10:02:40+02:00</time>
      </trkpt>
      <trkpt lat="42.71339" lon="0.61761">
        <ele>1630.5</ele>
        <time>2026-07-05T10:02:45+02:00</time>
      </trkpt>
      <trkpt lat="42.71344" lon="0.6176">
        <ele>1628.4004</ele>
        <time>2026-07-05T10:02:53+02:00</time>
      </trkpt>
      <trkpt lat="42.71349" lon="0.6176">
        <ele>1626.6006</ele>
        <time>2026-07-05T10:02:57+02:00</time>
      </trkpt>
      <trkpt lat="42.71354" lon="0.61762">
        <ele>1625</ele>
        <time>2026-07-05T10:03:01+02:00</time>
      </trkpt>
      <trkpt lat="42.7136" lon="0.61759">
        <ele>1625</ele>
        <time>2026-07-05T10:03:04+02:00</time>
      </trkpt>
      <trkpt lat="42.71363" lon="0.61762">
        <ele>1623.5</ele>
        <time>2026-07-05T10:03:07+02:00</time>
      </trkpt>
      <trkpt lat="42.71365" lon="0.61769">
        <ele>1628.4004</ele>
        <time>2026-07-05T10:03:11+02:00</time>
      </trkpt>
      <trkpt lat="42.71371" lon="0.61769">
        <ele>1626.9004</ele>
        <time>2026-07-05T10:03:16+02:00</time>
      </trkpt>
      <trkpt lat="42.71376" lon="0.61771">
        <ele>1625.6006</ele>
        <time>2026-07-05T10:03:21+02:00</time>
      </trkpt>
      <trkpt lat="42.71381" lon="0.61773">
        <ele>1628.9004</ele>
        <time>2026-07-05T10:03:26+02:00</time>
      </trkpt>
      <trkpt lat="42.71385" lon="0.61771">
        <ele>1623.1006</ele>
        <time>2026-07-05T10:03:32+02:00</time>
      </trkpt>
      <trkpt lat="42.7139" lon="0.61769">
        <ele>1623.1006</ele>
        <time>2026-07-05T10:03:36+02:00</time>
      </trkpt>
      <trkpt lat="42.71395" lon="0.61767">
        <ele>1621.7998</ele>
        <time>2026-07-05T10:03:39+02:00</time>
      </trkpt>
      <trkpt lat="42.714" lon="0.61764">
        <ele>1620.6006</ele>
        <time>2026-07-05T10:03:45+02:00</time>
      </trkpt>
      <trkpt lat="42.71405" lon="0.61763">
        <ele>1615.4004</ele>
        <time>2026-07-05T10:03:51+02:00</time>
      </trkpt>
      <trkpt lat="42.71411" lon="0.61763">
        <ele>1614.2998</ele>
        <time>2026-07-05T10:03:56+02:00</time>
      </trkpt>
      <trkpt lat="42.71416" lon="0.61761">
        <ele>1614.2998</ele>
        <time>2026-07-05T10:04:01+02:00</time>
      </trkpt>
      <trkpt lat="42.7142" lon="0.61756">
        <ele>1613.4004</ele>
        <time>2026-07-05T10:04:05+02:00</time>
      </trkpt>
      <trkpt lat="42.71425" lon="0.61754">
        <ele>1608.7002</ele>
        <time>2026-07-05T10:04:10+02:00</time>
      </trkpt>
      <trkpt lat="42.7143" lon="0.61752">
        <ele>1607.9004</ele>
        <time>2026-07-05T10:04:14+02:00</time>
      </trkpt>
      <trkpt lat="42.71435" lon="0.61753">
        <ele>1607.9004</ele>
        <time>2026-07-05T10:04:20+02:00</time>
      </trkpt>
      <trkpt lat="42.7144" lon="0.61751">
        <ele>1607.2998</ele>
        <time>2026-07-05T10:04:26+02:00</time>
      </trkpt>
      <trkpt lat="42.71443" lon="0.61746">
        <ele>1603.2002</ele>
        <time>2026-07-05T10:04:31+02:00</time>
      </trkpt>
      <trkpt lat="42.71445" lon="0.6174">
        <ele>1603.2002</ele>
        <time>2026-07-05T10:04:34+02:00</time>
      </trkpt>
      <trkpt lat="42.71445" lon="0.61733">
        <ele>1599.6006</ele>
        <time>2026-07-05T10:04:44+02:00</time>
      </trkpt>
      <trkpt lat="42.71449" lon="0.6173">
        <ele>1599.2998</ele>
        <time>2026-07-05T10:04:52+02:00</time>
      </trkpt>
      <trkpt lat="42.71447" lon="0.61736">
        <ele>1599.6006</ele>
        <time>2026-07-05T10:05:08+02:00</time>
      </trkpt>
      <trkpt lat="42.71442" lon="0.61733">
        <ele>1599.6006</ele>
        <time>2026-07-05T10:05:12+02:00</time>
      </trkpt>
      <trkpt lat="42.71441" lon="0.61739">
        <ele>1603.7002</ele>
        <time>2026-07-05T10:05:24+02:00</time>
      </trkpt>
      <trkpt lat="42.71445" lon="0.61734">
        <ele>1599.6006</ele>
        <time>2026-07-05T10:05:42+02:00</time>
      </trkpt>
      <trkpt lat="42.71447" lon="0.61729">
        <ele>1595.9004</ele>
        <time>2026-07-05T10:05:50+02:00</time>
      </trkpt>
      <trkpt lat="42.71451" lon="0.61725">
        <ele>1595.6006</ele>
        <time>2026-07-05T10:05:54+02:00</time>
      </trkpt>
      <trkpt lat="42.71455" lon="0.61723">
        <ele>1595.2998</ele>
        <time>2026-07-05T10:05:58+02:00</time>
      </trkpt>
      <trkpt lat="42.71459" lon="0.61718">
        <ele>1591.7002</ele>
        <time>2026-07-05T10:06:04+02:00</time>
      </trkpt>
      <trkpt lat="42.71463" lon="0.61718">
        <ele>1591.5</ele>
        <time>2026-07-05T10:06:08+02:00</time>
      </trkpt>
      <trkpt lat="42.71469" lon="0.61721">
        <ele>1594.9004</ele>
        <time>2026-07-05T10:06:23+02:00</time>
      </trkpt>
      <trkpt lat="42.71474" lon="0.61719">
        <ele>1591.2002</ele>
        <time>2026-07-05T10:06:34+02:00</time>
      </trkpt>
      <trkpt lat="42.71479" lon="0.61718">
        <ele>1591.2002</ele>
        <time>2026-07-05T10:06:42+02:00</time>
      </trkpt>
      <trkpt lat="42.71484" lon="0.61714">
        <ele>1591.2002</ele>
        <time>2026-07-05T10:06:50+02:00</time>
      </trkpt>
      <trkpt lat="42.7149" lon="0.61711">
        <ele>1587.6006</ele>
        <time>2026-07-05T10:06:54+02:00</time>
      </trkpt>
      <trkpt lat="42.71494" lon="0.61715">
        <ele>1591.1006</ele>
        <time>2026-07-05T10:07:01+02:00</time>
      </trkpt>
      <trkpt lat="42.71498" lon="0.61718">
        <ele>1591.1006</ele>
        <time>2026-07-05T10:07:06+02:00</time>
      </trkpt>
      <trkpt lat="42.715" lon="0.61724">
        <ele>1594.2998</ele>
        <time>2026-07-05T10:07:12+02:00</time>
      </trkpt>
      <trkpt lat="42.71504" lon="0.61727">
        <ele>1594.2998</ele>
        <time>2026-07-05T10:07:18+02:00</time>
      </trkpt>
      <trkpt lat="42.71508" lon="0.61732">
        <ele>1597.1006</ele>
        <time>2026-07-05T10:07:38+02:00</time>
      </trkpt>
      <trkpt lat="42.71512" lon="0.61734">
        <ele>1596.5</ele>
        <time>2026-07-05T10:07:42+02:00</time>
      </trkpt>
      <trkpt lat="42.71518" lon="0.6174">
        <ele>1598.2998</ele>
        <time>2026-07-05T10:07:49+02:00</time>
      </trkpt>
      <trkpt lat="42.71524" lon="0.61743">
        <ele>1598.2998</ele>
        <time>2026-07-05T10:07:54+02:00</time>
      </trkpt>
      <trkpt lat="42.71529" lon="0.61745">
        <ele>1597.2002</ele>
        <time>2026-07-05T10:08:01+02:00</time>
      </trkpt>
      <trkpt lat="42.71534" lon="0.61747">
        <ele>1598.1006</ele>
        <time>2026-07-05T10:08:08+02:00</time>
      </trkpt>
      <trkpt lat="42.71539" lon="0.61751">
        <ele>1596.6006</ele>
        <time>2026-07-05T10:08:14+02:00</time>
      </trkpt>
      <trkpt lat="42.71545" lon="0.61753">
        <ele>1595</ele>
        <time>2026-07-05T10:08:20+02:00</time>
      </trkpt>
      <trkpt lat="42.7155" lon="0.61756">
        <ele>1594.9004</ele>
        <time>2026-07-05T10:08:23+02:00</time>
      </trkpt>
      <trkpt lat="42.71555" lon="0.61758">
        <ele>1594.9004</ele>
        <time>2026-07-05T10:08:27+02:00</time>
      </trkpt>
      <trkpt lat="42.71559" lon="0.61762">
        <ele>1592.9004</ele>
        <time>2026-07-05T10:08:30+02:00</time>
      </trkpt>
      <trkpt lat="42.71561" lon="0.61767">
        <ele>1594.4004</ele>
        <time>2026-07-05T10:08:36+02:00</time>
      </trkpt>
      <trkpt lat="42.71565" lon="0.61773">
        <ele>1593.4004</ele>
        <time>2026-07-05T10:08:41+02:00</time>
      </trkpt>
      <trkpt lat="42.71565" lon="0.6178">
        <ele>1593.4004</ele>
        <time>2026-07-05T10:08:46+02:00</time>
      </trkpt>
      <trkpt lat="42.7157" lon="0.61783">
        <ele>1592.1006</ele>
        <time>2026-07-05T10:08:51+02:00</time>
      </trkpt>
      <trkpt lat="42.71569" lon="0.61791">
        <ele>1593.1006</ele>
        <time>2026-07-05T10:08:56+02:00</time>
      </trkpt>
      <trkpt lat="42.7157" lon="0.61797">
        <ele>1593.1006</ele>
        <time>2026-07-05T10:09:01+02:00</time>
      </trkpt>
      <trkpt lat="42.7157" lon="0.61805">
        <ele>1593.9004</ele>
        <time>2026-07-05T10:09:06+02:00</time>
      </trkpt>
      <trkpt lat="42.71575" lon="0.61808">
        <ele>1591.9004</ele>
        <time>2026-07-05T10:09:10+02:00</time>
      </trkpt>
      <trkpt lat="42.71575" lon="0.61815">
        <ele>1591.9004</ele>
        <time>2026-07-05T10:09:23+02:00</time>
      </trkpt>
      <trkpt lat="42.71575" lon="0.61822">
        <ele>1592.2998</ele>
        <time>2026-07-05T10:09:29+02:00</time>
      </trkpt>
      <trkpt lat="42.71576" lon="0.61828">
        <ele>1592.6006</ele>
        <time>2026-07-05T10:09:35+02:00</time>
      </trkpt>
      <trkpt lat="42.71577" lon="0.61835">
        <ele>1592.7002</ele>
        <time>2026-07-05T10:09:41+02:00</time>
      </trkpt>
      <trkpt lat="42.71577" lon="0.61841">
        <ele>1592.6006</ele>
        <time>2026-07-05T10:10:10+02:00</time>
      </trkpt>
      <trkpt lat="42.7158" lon="0.61847">
        <ele>1592.6006</ele>
        <time>2026-07-05T10:10:15+02:00</time>
      </trkpt>
      <trkpt lat="42.7158" lon="0.61854">
        <ele>1592.5</ele>
        <time>2026-07-05T10:10:21+02:00</time>
      </trkpt>
      <trkpt lat="42.71582" lon="0.61861">
        <ele>1589.2998</ele>
        <time>2026-07-05T10:10:26+02:00</time>
      </trkpt>
      <trkpt lat="42.71583" lon="0.61867">
        <ele>1589</ele>
        <time>2026-07-05T10:10:31+02:00</time>
      </trkpt>
      <trkpt lat="42.71586" lon="0.61874">
        <ele>1589</ele>
        <time>2026-07-05T10:10:37+02:00</time>
      </trkpt>
      <trkpt lat="42.71589" lon="0.6188">
        <ele>1585.7002</ele>
        <time>2026-07-05T10:10:41+02:00</time>
      </trkpt>
      <trkpt lat="42.71588" lon="0.61888">
        <ele>1585.4004</ele>
        <time>2026-07-05T10:10:45+02:00</time>
      </trkpt>
      <trkpt lat="42.71586" lon="0.61895">
        <ele>1588.1006</ele>
        <time>2026-07-05T10:10:51+02:00</time>
      </trkpt>
      <trkpt lat="42.71587" lon="0.61902">
        <ele>1584.6006</ele>
        <time>2026-07-05T10:10:56+02:00</time>
      </trkpt>
      <trkpt lat="42.71584" lon="0.61908">
        <ele>1587.7002</ele>
        <time>2026-07-05T10:11:00+02:00</time>
      </trkpt>
      <trkpt lat="42.71586" lon="0.61915">
        <ele>1587.2998</ele>
        <time>2026-07-05T10:11:05+02:00</time>
      </trkpt>
      <trkpt lat="42.71591" lon="0.6192">
        <ele>1583.6006</ele>
        <time>2026-07-05T10:11:09+02:00</time>
      </trkpt>
      <trkpt lat="42.71595" lon="0.61924">
        <ele>1580.2002</ele>
        <time>2026-07-05T10:11:14+02:00</time>
      </trkpt>
      <trkpt lat="42.716" lon="0.61927">
        <ele>1576.1006</ele>
        <time>2026-07-05T10:11:21+02:00</time>
      </trkpt>
      <trkpt lat="42.71604" lon="0.61931">
        <ele>1576.1006</ele>
        <time>2026-07-05T10:11:26+02:00</time>
      </trkpt>
      <trkpt lat="42.71607" lon="0.61936">
        <ele>1572</ele>
        <time>2026-07-05T10:11:31+02:00</time>
      </trkpt>
      <trkpt lat="42.7161" lon="0.61942">
        <ele>1572</ele>
        <time>2026-07-05T10:11:39+02:00</time>
      </trkpt>
      <trkpt lat="42.71608" lon="0.61948">
        <ele>1571.5</ele>
        <time>2026-07-05T10:11:46+02:00</time>
      </trkpt>
      <trkpt lat="42.71603" lon="0.61951">
        <ele>1575</ele>
        <time>2026-07-05T10:11:51+02:00</time>
      </trkpt>
      <trkpt lat="42.71599" lon="0.61955">
        <ele>1577.9004</ele>
        <time>2026-07-05T10:11:56+02:00</time>
      </trkpt>
      <trkpt lat="42.71595" lon="0.6196">
        <ele>1577.9004</ele>
        <time>2026-07-05T10:12:02+02:00</time>
      </trkpt>
      <trkpt lat="42.7159" lon="0.61961">
        <ele>1581.2002</ele>
        <time>2026-07-05T10:12:08+02:00</time>
      </trkpt>
      <trkpt lat="42.71586" lon="0.61966">
        <ele>1583.7002</ele>
        <time>2026-07-05T10:12:14+02:00</time>
      </trkpt>
      <trkpt lat="42.71581" lon="0.6197">
        <ele>1582.9004</ele>
        <time>2026-07-05T10:12:23+02:00</time>
      </trkpt>
      <trkpt lat="42.71577" lon="0.61973">
        <ele>1586.1006</ele>
        <time>2026-07-05T10:12:27+02:00</time>
      </trkpt>
      <trkpt lat="42.71574" lon="0.61978">
        <ele>1589.2002</ele>
        <time>2026-07-05T10:12:31+02:00</time>
      </trkpt>
      <trkpt lat="42.71571" lon="0.61984">
        <ele>1588.4004</ele>
        <time>2026-07-05T10:12:37+02:00</time>
      </trkpt>
      <trkpt lat="42.71568" lon="0.61988">
        <ele>1590.6006</ele>
        <time>2026-07-05T10:12:43+02:00</time>
      </trkpt>
      <trkpt lat="42.71563" lon="0.6199">
        <ele>1590.6006</ele>
        <time>2026-07-05T10:12:48+02:00</time>
      </trkpt>
      <trkpt lat="42.71559" lon="0.61995">
        <ele>1593.9004</ele>
        <time>2026-07-05T10:12:54+02:00</time>
      </trkpt>
      <trkpt lat="42.71554" lon="0.61997">
        <ele>1596.4004</ele>
        <time>2026-07-05T10:12:59+02:00</time>
      </trkpt>
      <trkpt lat="42.71549" lon="0.62">
        <ele>1596.4004</ele>
        <time>2026-07-05T10:13:04+02:00</time>
      </trkpt>
      <trkpt lat="42.71545" lon="0.62004">
        <ele>1599</ele>
        <time>2026-07-05T10:13:09+02:00</time>
      </trkpt>
      <trkpt lat="42.71541" lon="0.62007">
        <ele>1602.7998</ele>
        <time>2026-07-05T10:13:14+02:00</time>
      </trkpt>
      <trkpt lat="42.71536" lon="0.6201">
        <ele>1602.7998</ele>
        <time>2026-07-05T10:13:25+02:00</time>
      </trkpt>
      <trkpt lat="42.71535" lon="0.62017">
        <ele>1605.7002</ele>
        <time>2026-07-05T10:13:32+02:00</time>
      </trkpt>
      <trkpt lat="42.71532" lon="0.62023">
        <ele>1604.5</ele>
        <time>2026-07-05T10:13:38+02:00</time>
      </trkpt>
      <trkpt lat="42.71528" lon="0.62028">
        <ele>1608.9004</ele>
        <time>2026-07-05T10:13:44+02:00</time>
      </trkpt>
      <trkpt lat="42.71524" lon="0.62034">
        <ele>1607.5</ele>
        <time>2026-07-05T10:13:49+02:00</time>
      </trkpt>
      <trkpt lat="42.71521" lon="0.62038">
        <ele>1612.2998</ele>
        <time>2026-07-05T10:13:54+02:00</time>
      </trkpt>
      <trkpt lat="42.71516" lon="0.62041">
        <ele>1615.5</ele>
        <time>2026-07-05T10:13:59+02:00</time>
      </trkpt>
      <trkpt lat="42.71514" lon="0.62047">
        <ele>1615.5</ele>
        <time>2026-07-05T10:14:05+02:00</time>
      </trkpt>
      <trkpt lat="42.71512" lon="0.62054">
        <ele>1613.6006</ele>
        <time>2026-07-05T10:14:11+02:00</time>
      </trkpt>
      <trkpt lat="42.71511" lon="0.6206">
        <ele>1611.4004</ele>
        <time>2026-07-05T10:14:16+02:00</time>
      </trkpt>
      <trkpt lat="42.7151" lon="0.62067">
        <ele>1614.2998</ele>
        <time>2026-07-05T10:14:20+02:00</time>
      </trkpt>
      <trkpt lat="42.71507" lon="0.62073">
        <ele>1612</ele>
        <time>2026-07-05T10:14:27+02:00</time>
      </trkpt>
      <trkpt lat="42.71505" lon="0.62079">
        <ele>1617.6006</ele>
        <time>2026-07-05T10:14:34+02:00</time>
      </trkpt>
      <trkpt lat="42.71505" lon="0.62086">
        <ele>1615.2002</ele>
        <time>2026-07-05T10:14:45+02:00</time>
      </trkpt>
      <trkpt lat="42.71501" lon="0.62091">
        <ele>1612.6006</ele>
        <time>2026-07-05T10:14:51+02:00</time>
      </trkpt>
      <trkpt lat="42.715" lon="0.62099">
        <ele>1610.2002</ele>
        <time>2026-07-05T10:14:59+02:00</time>
      </trkpt>
      <trkpt lat="42.715" lon="0.62106">
        <ele>1610.2002</ele>
        <time>2026-07-05T10:15:03+02:00</time>
      </trkpt>
      <trkpt lat="42.71502" lon="0.62113">
        <ele>1607.9004</ele>
        <time>2026-07-05T10:15:09+02:00</time>
      </trkpt>
      <trkpt lat="42.715" lon="0.62119">
        <ele>1605.7002</ele>
        <time>2026-07-05T10:15:15+02:00</time>
      </trkpt>
      <trkpt lat="42.71499" lon="0.62125">
        <ele>1603.7998</ele>
        <time>2026-07-05T10:15:22+02:00</time>
      </trkpt>
      <trkpt lat="42.71499" lon="0.62133">
        <ele>1603.7998</ele>
        <time>2026-07-05T10:15:27+02:00</time>
      </trkpt>
      <trkpt lat="42.715" lon="0.62139">
        <ele>1602.4004</ele>
        <time>2026-07-05T10:15:32+02:00</time>
      </trkpt>
      <trkpt lat="42.71501" lon="0.62145">
        <ele>1601.2998</ele>
        <time>2026-07-05T10:15:37+02:00</time>
      </trkpt>
      <trkpt lat="42.715" lon="0.62152">
        <ele>1600.5</ele>
        <time>2026-07-05T10:15:41+02:00</time>
      </trkpt>
      <trkpt lat="42.71501" lon="0.62159">
        <ele>1600.5</ele>
        <time>2026-07-05T10:15:48+02:00</time>
      </trkpt>
      <trkpt lat="42.715" lon="0.62166">
        <ele>1599.7002</ele>
        <time>2026-07-05T10:15:54+02:00</time>
      </trkpt>
      <trkpt lat="42.71503" lon="0.62171">
        <ele>1598.6006</ele>
        <time>2026-07-05T10:15:59+02:00</time>
      </trkpt>
      <trkpt lat="42.71506" lon="0.62177">
        <ele>1591.6006</ele>
        <time>2026-07-05T10:16:04+02:00</time>
      </trkpt>
      <trkpt lat="42.71505" lon="0.62184">
        <ele>1597.4004</ele>
        <time>2026-07-05T10:16:11+02:00</time>
      </trkpt>
      <trkpt lat="42.71505" lon="0.62191">
        <ele>1590.4004</ele>
        <time>2026-07-05T10:16:17+02:00</time>
      </trkpt>
      <trkpt lat="42.71503" lon="0.62197">
        <ele>1594.5</ele>
        <time>2026-07-05T10:16:22+02:00</time>
      </trkpt>
      <trkpt lat="42.71503" lon="0.62204">
        <ele>1592.2998</ele>
        <time>2026-07-05T10:16:26+02:00</time>
      </trkpt>
      <trkpt lat="42.71504" lon="0.62211">
        <ele>1589.9004</ele>
        <time>2026-07-05T10:16:30+02:00</time>
      </trkpt>
      <trkpt lat="42.71507" lon="0.62216">
        <ele>1584.2998</ele>
        <time>2026-07-05T10:16:35+02:00</time>
      </trkpt>
      <trkpt lat="42.71509" lon="0.62222">
        <ele>1581.9004</ele>
        <time>2026-07-05T10:16:41+02:00</time>
      </trkpt>
      <trkpt lat="42.71509" lon="0.62229">
        <ele>1579.7998</ele>
        <time>2026-07-05T10:16:46+02:00</time>
      </trkpt>
      <trkpt lat="42.71509" lon="0.62236">
        <ele>1577.9004</ele>
        <time>2026-07-05T10:16:51+02:00</time>
      </trkpt>
      <trkpt lat="42.71511" lon="0.62242">
        <ele>1572.7002</ele>
        <time>2026-07-05T10:16:56+02:00</time>
      </trkpt>
      <trkpt lat="42.71512" lon="0.62249">
        <ele>1570.9004</ele>
        <time>2026-07-05T10:17:01+02:00</time>
      </trkpt>
      <trkpt lat="42.71511" lon="0.62255">
        <ele>1575.1006</ele>
        <time>2026-07-05T10:17:06+02:00</time>
      </trkpt>
      <trkpt lat="42.71509" lon="0.62262">
        <ele>1575.1006</ele>
        <time>2026-07-05T10:17:20+02:00</time>
      </trkpt>
      <trkpt lat="42.71512" lon="0.62269">
        <ele>1568.7998</ele>
        <time>2026-07-05T10:17:28+02:00</time>
      </trkpt>
      <trkpt lat="42.71509" lon="0.62275">
        <ele>1574.2998</ele>
        <time>2026-07-05T10:17:34+02:00</time>
      </trkpt>
      <trkpt lat="42.71508" lon="0.62282">
        <ele>1574.7002</ele>
        <time>2026-07-05T10:17:38+02:00</time>
      </trkpt>
      <trkpt lat="42.71508" lon="0.62289">
        <ele>1575.6006</ele>
        <time>2026-07-05T10:17:46+02:00</time>
      </trkpt>
      <trkpt lat="42.71511" lon="0.62294">
        <ele>1575.6006</ele>
        <time>2026-07-05T10:17:51+02:00</time>
      </trkpt>
      <trkpt lat="42.71512" lon="0.62301">
        <ele>1571.2002</ele>
        <time>2026-07-05T10:17:57+02:00</time>
      </trkpt>
      <trkpt lat="42.71515" lon="0.62305">
        <ele>1572.9004</ele>
        <time>2026-07-05T10:18:14+02:00</time>
      </trkpt>
      <trkpt lat="42.71517" lon="0.62311">
        <ele>1572.9004</ele>
        <time>2026-07-05T10:18:24+02:00</time>
      </trkpt>
      <trkpt lat="42.7152" lon="0.62315">
        <ele>1569.2998</ele>
        <time>2026-07-05T10:18:28+02:00</time>
      </trkpt>
      <trkpt lat="42.7152" lon="0.62321">
        <ele>1569.2998</ele>
        <time>2026-07-05T10:18:34+02:00</time>
      </trkpt>
      <trkpt lat="42.71523" lon="0.62328">
        <ele>1571.2002</ele>
        <time>2026-07-05T10:18:40+02:00</time>
      </trkpt>
      <trkpt lat="42.71524" lon="0.62333">
        <ele>1568.2002</ele>
        <time>2026-07-05T10:18:44+02:00</time>
      </trkpt>
      <trkpt lat="42.71526" lon="0.6234">
        <ele>1570.1006</ele>
        <time>2026-07-05T10:18:52+02:00</time>
      </trkpt>
      <trkpt lat="42.7153" lon="0.62346">
        <ele>1570.1006</ele>
        <time>2026-07-05T10:18:57+02:00</time>
      </trkpt>
      <trkpt lat="42.71533" lon="0.62352">
        <ele>1566.2998</ele>
        <time>2026-07-05T10:19:03+02:00</time>
      </trkpt>
      <trkpt lat="42.71534" lon="0.62358">
        <ele>1567.2002</ele>
        <time>2026-07-05T10:19:07+02:00</time>
      </trkpt>
      <trkpt lat="42.71532" lon="0.62363">
        <ele>1567.2002</ele>
        <time>2026-07-05T10:19:13+02:00</time>
      </trkpt>
      <trkpt lat="42.71531" lon="0.62369">
        <ele>1567.9004</ele>
        <time>2026-07-05T10:19:20+02:00</time>
      </trkpt>
      <trkpt lat="42.7153" lon="0.62376">
        <ele>1568.2002</ele>
        <time>2026-07-05T10:19:26+02:00</time>
      </trkpt>
      <trkpt lat="42.71528" lon="0.62381">
        <ele>1573.4004</ele>
        <time>2026-07-05T10:19:33+02:00</time>
      </trkpt>
      <trkpt lat="42.71528" lon="0.62388">
        <ele>1573.6006</ele>
        <time>2026-07-05T10:19:42+02:00</time>
      </trkpt>
      <trkpt lat="42.71527" lon="0.62394">
        <ele>1573.5</ele>
        <time>2026-07-05T10:19:51+02:00</time>
      </trkpt>
      <trkpt lat="42.71525" lon="0.62401">
        <ele>1573.2998</ele>
        <time>2026-07-05T10:19:56+02:00</time>
      </trkpt>
      <trkpt lat="42.71525" lon="0.62407">
        <ele>1573.2998</ele>
        <time>2026-07-05T10:20:01+02:00</time>
      </trkpt>
      <trkpt lat="42.71524" lon="0.62414">
        <ele>1578.2002</ele>
        <time>2026-07-05T10:20:07+02:00</time>
      </trkpt>
      <trkpt lat="42.71524" lon="0.6242">
        <ele>1572.7002</ele>
        <time>2026-07-05T10:20:14+02:00</time>
      </trkpt>
      <trkpt lat="42.71523" lon="0.62427">
        <ele>1577.4004</ele>
        <time>2026-07-05T10:20:21+02:00</time>
      </trkpt>
      <trkpt lat="42.71524" lon="0.62433">
        <ele>1572.2998</ele>
        <time>2026-07-05T10:20:35+02:00</time>
      </trkpt>
      <trkpt lat="42.71528" lon="0.62436">
        <ele>1571.9004</ele>
        <time>2026-07-05T10:20:46+02:00</time>
      </trkpt>
      <trkpt lat="42.71526" lon="0.62441">
        <ele>1571.9004</ele>
        <time>2026-07-05T10:21:06+02:00</time>
      </trkpt>
      <trkpt lat="42.71527" lon="0.62448">
        <ele>1571.4004</ele>
        <time>2026-07-05T10:21:26+02:00</time>
      </trkpt>
      <trkpt lat="42.71528" lon="0.62454">
        <ele>1570.7002</ele>
        <time>2026-07-05T10:21:33+02:00</time>
      </trkpt>
      <trkpt lat="42.71526" lon="0.6246">
        <ele>1570.1006</ele>
        <time>2026-07-05T10:21:40+02:00</time>
      </trkpt>
      <trkpt lat="42.71527" lon="0.62467">
        <ele>1570.1006</ele>
        <time>2026-07-05T10:21:45+02:00</time>
      </trkpt>
      <trkpt lat="42.71529" lon="0.62473">
        <ele>1569.7002</ele>
        <time>2026-07-05T10:21:49+02:00</time>
      </trkpt>
      <trkpt lat="42.71532" lon="0.62478">
        <ele>1565.4004</ele>
        <time>2026-07-05T10:21:53+02:00</time>
      </trkpt>
      <trkpt lat="42.71532" lon="0.62485">
        <ele>1565.4004</ele>
        <time>2026-07-05T10:21:58+02:00</time>
      </trkpt>
      <trkpt lat="42.71531" lon="0.62491">
        <ele>1565.5</ele>
        <time>2026-07-05T10:22:11+02:00</time>
      </trkpt>
      <trkpt lat="42.71535" lon="0.62494">
        <ele>1566</ele>
        <time>2026-07-05T10:22:27+02:00</time>
      </trkpt>
      <trkpt lat="42.71539" lon="0.62496">
        <ele>1562.4004</ele>
        <time>2026-07-05T10:22:32+02:00</time>
      </trkpt>
      <trkpt lat="42.7154" lon="0.62503">
        <ele>1563.4004</ele>
        <time>2026-07-05T10:22:38+02:00</time>
      </trkpt>
      <trkpt lat="42.71542" lon="0.62509">
        <ele>1563.4004</ele>
        <time>2026-07-05T10:22:44+02:00</time>
      </trkpt>
      <trkpt lat="42.71543" lon="0.62516">
        <ele>1561.9004</ele>
        <time>2026-07-05T10:22:49+02:00</time>
      </trkpt>
      <trkpt lat="42.71545" lon="0.62521">
        <ele>1563.7998</ele>
        <time>2026-07-05T10:22:54+02:00</time>
      </trkpt>
      <trkpt lat="42.71545" lon="0.62528">
        <ele>1565.7002</ele>
        <time>2026-07-05T10:22:59+02:00</time>
      </trkpt>
      <trkpt lat="42.71545" lon="0.62536">
        <ele>1565.7002</ele>
        <time>2026-07-05T10:23:04+02:00</time>
      </trkpt>
      <trkpt lat="42.71546" lon="0.62542">
        <ele>1567.7002</ele>
        <time>2026-07-05T10:23:10+02:00</time>
      </trkpt>
      <trkpt lat="42.71546" lon="0.62549">
        <ele>1569.9004</ele>
        <time>2026-07-05T10:23:15+02:00</time>
      </trkpt>
      <trkpt lat="42.71546" lon="0.62556">
        <ele>1572.2002</ele>
        <time>2026-07-05T10:23:21+02:00</time>
      </trkpt>
      <trkpt lat="42.71547" lon="0.62562">
        <ele>1574.4004</ele>
        <time>2026-07-05T10:23:26+02:00</time>
      </trkpt>
      <trkpt lat="42.71548" lon="0.62569">
        <ele>1574.4004</ele>
        <time>2026-07-05T10:23:31+02:00</time>
      </trkpt>
      <trkpt lat="42.71549" lon="0.62576">
        <ele>1574.2002</ele>
        <time>2026-07-05T10:23:37+02:00</time>
      </trkpt>
      <trkpt lat="42.7155" lon="0.62582">
        <ele>1576.9004</ele>
        <time>2026-07-05T10:23:43+02:00</time>
      </trkpt>
      <trkpt lat="42.71552" lon="0.62588">
        <ele>1580.1006</ele>
        <time>2026-07-05T10:26:54+02:00</time>
      </trkpt>
      <trkpt lat="42.71552" lon="0.62594">
        <ele>1580.1006</ele>
        <time>2026-07-05T10:26:58+02:00</time>
      </trkpt>
      <trkpt lat="42.7155" lon="0.626">
        <ele>1583.6006</ele>
        <time>2026-07-05T10:27:05+02:00</time>
      </trkpt>
      <trkpt lat="42.71549" lon="0.62606">
        <ele>1589</ele>
        <time>2026-07-05T10:27:28+02:00</time>
      </trkpt>
      <trkpt lat="42.71549" lon="0.62612">
        <ele>1589</ele>
        <time>2026-07-05T10:27:56+02:00</time>
      </trkpt>
      <trkpt lat="42.71549" lon="0.62619">
        <ele>1591</ele>
        <time>2026-07-05T10:28:22+02:00</time>
      </trkpt>
      <trkpt lat="42.71554" lon="0.62615">
        <ele>1591</ele>
        <time>2026-07-05T10:29:02+02:00</time>
      </trkpt>
      <trkpt lat="42.71558" lon="0.62611">
        <ele>1586</ele>
        <time>2026-07-05T10:29:08+02:00</time>
      </trkpt>
      <trkpt lat="42.71563" lon="0.6261">
        <ele>1584.7002</ele>
        <time>2026-07-05T10:29:14+02:00</time>
      </trkpt>
      <trkpt lat="42.71566" lon="0.62607">
        <ele>1584.7002</ele>
        <time>2026-07-05T10:29:18+02:00</time>
      </trkpt>
      <trkpt lat="42.71572" lon="0.62607">
        <ele>1583.5</ele>
        <time>2026-07-05T10:29:23+02:00</time>
      </trkpt>
      <trkpt lat="42.71576" lon="0.62604">
        <ele>1578.5</ele>
        <time>2026-07-05T10:29:32+02:00</time>
      </trkpt>
      <trkpt lat="42.7158" lon="0.62599">
        <ele>1578.5</ele>
        <time>2026-07-05T10:29:37+02:00</time>
      </trkpt>
      <trkpt lat="42.71586" lon="0.62597">
        <ele>1577.5</ele>
        <time>2026-07-05T10:29:45+02:00</time>
      </trkpt>
      <trkpt lat="42.71591" lon="0.62597">
        <ele>1576.6006</ele>
        <time>2026-07-05T10:29:51+02:00</time>
      </trkpt>
      <trkpt lat="42.71595" lon="0.62599">
        <ele>1575.9004</ele>
        <time>2026-07-05T10:29:56+02:00</time>
      </trkpt>
      <trkpt lat="42.716" lon="0.62598">
        <ele>1575.2002</ele>
        <time>2026-07-05T10:30:01+02:00</time>
      </trkpt>
      <trkpt lat="42.71604" lon="0.62601">
        <ele>1575.2002</ele>
        <time>2026-07-05T10:30:06+02:00</time>
      </trkpt>
      <trkpt lat="42.71608" lon="0.62604">
        <ele>1574.6006</ele>
        <time>2026-07-05T10:30:21+02:00</time>
      </trkpt>
      <trkpt lat="42.71613" lon="0.62606">
        <ele>1578.4004</ele>
        <time>2026-07-05T10:30:34+02:00</time>
      </trkpt>
      <trkpt lat="42.71618" lon="0.62608">
        <ele>1578.4004</ele>
        <time>2026-07-05T10:30:39+02:00</time>
      </trkpt>
      <trkpt lat="42.71623" lon="0.62608">
        <ele>1577.9004</ele>
        <time>2026-07-05T10:30:43+02:00</time>
      </trkpt>
      <trkpt lat="42.71627" lon="0.62604">
        <ele>1573</ele>
        <time>2026-07-05T10:30:49+02:00</time>
      </trkpt>
      <trkpt lat="42.71629" lon="0.62599">
        <ele>1573</ele>
        <time>2026-07-05T10:30:54+02:00</time>
      </trkpt>
      <trkpt lat="42.71633" lon="0.62595">
        <ele>1568.2002</ele>
        <time>2026-07-05T10:30:58+02:00</time>
      </trkpt>
      <trkpt lat="42.71638" lon="0.62594">
        <ele>1567.7002</ele>
        <time>2026-07-05T10:31:03+02:00</time>
      </trkpt>
      <trkpt lat="42.71643" lon="0.62594">
        <ele>1567.7002</ele>
        <time>2026-07-05T10:31:07+02:00</time>
      </trkpt>
      <trkpt lat="42.71648" lon="0.62595">
        <ele>1567.4004</ele>
        <time>2026-07-05T10:31:13+02:00</time>
      </trkpt>
      <trkpt lat="42.71654" lon="0.62595">
        <ele>1567.1006</ele>
        <time>2026-07-05T10:31:19+02:00</time>
      </trkpt>
      <trkpt lat="42.7166" lon="0.62596">
        <ele>1566.9004</ele>
        <time>2026-07-05T10:31:23+02:00</time>
      </trkpt>
      <trkpt lat="42.71665" lon="0.62597">
        <ele>1571.9004</ele>
        <time>2026-07-05T10:31:27+02:00</time>
      </trkpt>
      <trkpt lat="42.7167" lon="0.62598">
        <ele>1571.7998</ele>
        <time>2026-07-05T10:31:31+02:00</time>
      </trkpt>
      <trkpt lat="42.71674" lon="0.62594">
        <ele>1566.6006</ele>
        <time>2026-07-05T10:31:37+02:00</time>
      </trkpt>
      <trkpt lat="42.71678" lon="0.6259">
        <ele>1566.5</ele>
        <time>2026-07-05T10:31:41+02:00</time>
      </trkpt>
      <trkpt lat="42.71682" lon="0.62587">
        <ele>1560.7998</ele>
        <time>2026-07-05T10:31:47+02:00</time>
      </trkpt>
      <trkpt lat="42.71686" lon="0.62587">
        <ele>1560.7998</ele>
        <time>2026-07-05T10:31:51+02:00</time>
      </trkpt>
      <trkpt lat="42.7169" lon="0.62591">
        <ele>1565.7002</ele>
        <time>2026-07-05T10:31:55+02:00</time>
      </trkpt>
      <trkpt lat="42.71695" lon="0.62588">
        <ele>1564.9004</ele>
        <time>2026-07-05T10:32:00+02:00</time>
      </trkpt>
      <trkpt lat="42.717" lon="0.62586">
        <ele>1559.5</ele>
        <time>2026-07-05T10:32:04+02:00</time>
      </trkpt>
      <trkpt lat="42.71704" lon="0.62585">
        <ele>1558.4004</ele>
        <time>2026-07-05T10:32:09+02:00</time>
      </trkpt>
      <trkpt lat="42.71709" lon="0.62582">
        <ele>1557.1006</ele>
        <time>2026-07-05T10:32:16+02:00</time>
      </trkpt>
      <trkpt lat="42.71713" lon="0.6258">
        <ele>1555.7002</ele>
        <time>2026-07-05T10:32:19+02:00</time>
      </trkpt>
      <trkpt lat="42.71717" lon="0.62576">
        <ele>1550.1006</ele>
        <time>2026-07-05T10:32:25+02:00</time>
      </trkpt>
      <trkpt lat="42.71723" lon="0.62576">
        <ele>1548.5</ele>
        <time>2026-07-05T10:32:29+02:00</time>
      </trkpt>
      <trkpt lat="42.71725" lon="0.62581">
        <ele>1554</ele>
        <time>2026-07-05T10:32:36+02:00</time>
      </trkpt>
      <trkpt lat="42.7173" lon="0.62583">
        <ele>1552.2002</ele>
        <time>2026-07-05T10:33:08+02:00</time>
      </trkpt>
      <trkpt lat="42.71734" lon="0.62588">
        <ele>1550.2002</ele>
        <time>2026-07-05T10:33:13+02:00</time>
      </trkpt>
      <trkpt lat="42.7174" lon="0.62591">
        <ele>1553.2002</ele>
        <time>2026-07-05T10:33:18+02:00</time>
      </trkpt>
      <trkpt lat="42.71744" lon="0.62594">
        <ele>1553.2002</ele>
        <time>2026-07-05T10:33:24+02:00</time>
      </trkpt>
      <trkpt lat="42.71749" lon="0.62599">
        <ele>1555.5</ele>
        <time>2026-07-05T10:33:31+02:00</time>
      </trkpt>
      <trkpt lat="42.71754" lon="0.62602">
        <ele>1552.6006</ele>
        <time>2026-07-05T10:33:37+02:00</time>
      </trkpt>
      <trkpt lat="42.7176" lon="0.62607">
        <ele>1554.1006</ele>
        <time>2026-07-05T10:33:52+02:00</time>
      </trkpt>
      <trkpt lat="42.71764" lon="0.62611">
        <ele>1550.6006</ele>
        <time>2026-07-05T10:34:02+02:00</time>
      </trkpt>
      <trkpt lat="42.71767" lon="0.62616">
        <ele>1554.9004</ele>
        <time>2026-07-05T10:34:07+02:00</time>
      </trkpt>
      <trkpt lat="42.71771" lon="0.62621">
        <ele>1551.1006</ele>
        <time>2026-07-05T10:34:15+02:00</time>
      </trkpt>
      <trkpt lat="42.71775" lon="0.62625">
        <ele>1555.2998</ele>
        <time>2026-07-05T10:34:22+02:00</time>
      </trkpt>
      <trkpt lat="42.71778" lon="0.6263">
        <ele>1551.2998</ele>
        <time>2026-07-05T10:34:35+02:00</time>
      </trkpt>
      <trkpt lat="42.71781" lon="0.62635">
        <ele>1555.2002</ele>
        <time>2026-07-05T10:34:43+02:00</time>
      </trkpt>
      <trkpt lat="42.71785" lon="0.62639">
        <ele>1551.1006</ele>
        <time>2026-07-05T10:34:47+02:00</time>
      </trkpt>
      <trkpt lat="42.7179" lon="0.62642">
        <ele>1550.7002</ele>
        <time>2026-07-05T10:34:53+02:00</time>
      </trkpt>
      <trkpt lat="42.71792" lon="0.62648">
        <ele>1554.4004</ele>
        <time>2026-07-05T10:35:06+02:00</time>
      </trkpt>
      <trkpt lat="42.71795" lon="0.62653">
        <ele>1550.1006</ele>
        <time>2026-07-05T10:35:13+02:00</time>
      </trkpt>
      <trkpt lat="42.71801" lon="0.62656">
        <ele>1550.1006</ele>
        <time>2026-07-05T10:35:17+02:00</time>
      </trkpt>
      <trkpt lat="42.71807" lon="0.62659">
        <ele>1549.5</ele>
        <time>2026-07-05T10:35:23+02:00</time>
      </trkpt>
      <trkpt lat="42.71808" lon="0.62665">
        <ele>1548.7998</ele>
        <time>2026-07-05T10:35:31+02:00</time>
      </trkpt>
      <trkpt lat="42.71809" lon="0.62672">
        <ele>1548.7998</ele>
        <time>2026-07-05T10:35:40+02:00</time>
      </trkpt>
      <trkpt lat="42.71813" lon="0.62677">
        <ele>1552.2998</ele>
        <time>2026-07-05T10:35:47+02:00</time>
      </trkpt>
      <trkpt lat="42.71816" lon="0.62681">
        <ele>1548.2002</ele>
        <time>2026-07-05T10:35:54+02:00</time>
      </trkpt>
      <trkpt lat="42.71821" lon="0.62683">
        <ele>1547.6006</ele>
        <time>2026-07-05T10:35:58+02:00</time>
      </trkpt>
      <trkpt lat="42.71822" lon="0.62688">
        <ele>1547.6006</ele>
        <time>2026-07-05T10:36:06+02:00</time>
      </trkpt>
      <trkpt lat="42.71826" lon="0.62692">
        <ele>1550.9004</ele>
        <time>2026-07-05T10:36:21+02:00</time>
      </trkpt>
      <trkpt lat="42.71828" lon="0.62699">
        <ele>1546.9004</ele>
        <time>2026-07-05T10:36:59+02:00</time>
      </trkpt>
      <trkpt lat="42.71832" lon="0.62705">
        <ele>1550.2998</ele>
        <time>2026-07-05T10:37:04+02:00</time>
      </trkpt>
      <trkpt lat="42.71836" lon="0.62709">
        <ele>1550</ele>
        <time>2026-07-05T10:37:09+02:00</time>
      </trkpt>
      <trkpt lat="42.71839" lon="0.62715">
        <ele>1550</ele>
        <time>2026-07-05T10:37:24+02:00</time>
      </trkpt>
      <trkpt lat="42.71841" lon="0.6272">
        <ele>1549.9004</ele>
        <time>2026-07-05T10:37:29+02:00</time>
      </trkpt>
      <trkpt lat="42.71844" lon="0.62726">
        <ele>1553.5</ele>
        <time>2026-07-05T10:37:35+02:00</time>
      </trkpt>
      <trkpt lat="42.71848" lon="0.6273">
        <ele>1550.1006</ele>
        <time>2026-07-05T10:37:40+02:00</time>
      </trkpt>
      <trkpt lat="42.71852" lon="0.62735">
        <ele>1553.7998</ele>
        <time>2026-07-05T10:37:46+02:00</time>
      </trkpt>
      <trkpt lat="42.71855" lon="0.6274">
        <ele>1550.7002</ele>
        <time>2026-07-05T10:37:51+02:00</time>
      </trkpt>
      <trkpt lat="42.71857" lon="0.62746">
        <ele>1554.5</ele>
        <time>2026-07-05T10:37:56+02:00</time>
      </trkpt>
      <trkpt lat="42.71859" lon="0.62752">
        <ele>1555.6006</ele>
        <time>2026-07-05T10:38:02+02:00</time>
      </trkpt>
      <trkpt lat="42.71861" lon="0.62758">
        <ele>1555.6006</ele>
        <time>2026-07-05T10:38:07+02:00</time>
      </trkpt>
      <trkpt lat="42.71864" lon="0.62763">
        <ele>1557.2002</ele>
        <time>2026-07-05T10:38:12+02:00</time>
      </trkpt>
      <trkpt lat="42.7187" lon="0.62765">
        <ele>1557.2002</ele>
        <time>2026-07-05T10:38:16+02:00</time>
      </trkpt>
      <trkpt lat="42.7187" lon="0.62772">
        <ele>1561.5</ele>
        <time>2026-07-05T10:38:25+02:00</time>
      </trkpt>
      <trkpt lat="42.71874" lon="0.62777">
        <ele>1563.7002</ele>
        <time>2026-07-05T10:38:30+02:00</time>
      </trkpt>
      <trkpt lat="42.71874" lon="0.62784">
        <ele>1563.7002</ele>
        <time>2026-07-05T10:38:36+02:00</time>
      </trkpt>
      <trkpt lat="42.71874" lon="0.62791">
        <ele>1567.9004</ele>
        <time>2026-07-05T10:38:41+02:00</time>
      </trkpt>
      <trkpt lat="42.71877" lon="0.62796">
        <ele>1572</ele>
        <time>2026-07-05T10:38:45+02:00</time>
      </trkpt>
      <trkpt lat="42.71878" lon="0.62803">
        <ele>1574.7002</ele>
        <time>2026-07-05T10:38:50+02:00</time>
      </trkpt>
      <trkpt lat="42.71881" lon="0.62808">
        <ele>1574.7002</ele>
        <time>2026-07-05T10:38:54+02:00</time>
      </trkpt>
      <trkpt lat="42.71883" lon="0.62814">
        <ele>1577.5</ele>
        <time>2026-07-05T10:39:16+02:00</time>
      </trkpt>
      <trkpt lat="42.71881" lon="0.6282">
        <ele>1582.6006</ele>
        <time>2026-07-05T10:39:23+02:00</time>
      </trkpt>
      <trkpt lat="42.71885" lon="0.62816">
        <ele>1577.5</ele>
        <time>2026-07-05T10:39:32+02:00</time>
      </trkpt>
      <trkpt lat="42.71889" lon="0.62813">
        <ele>1577.5</ele>
        <time>2026-07-05T10:39:38+02:00</time>
      </trkpt>
      <trkpt lat="42.71894" lon="0.62809">
        <ele>1572.2002</ele>
        <time>2026-07-05T10:39:44+02:00</time>
      </trkpt>
      <trkpt lat="42.71899" lon="0.62807">
        <ele>1571.2002</ele>
        <time>2026-07-05T10:39:48+02:00</time>
      </trkpt>
      <trkpt lat="42.71903" lon="0.62804">
        <ele>1570.2002</ele>
        <time>2026-07-05T10:39:52+02:00</time>
      </trkpt>
      <trkpt lat="42.71909" lon="0.62802">
        <ele>1564.6006</ele>
        <time>2026-07-05T10:39:57+02:00</time>
      </trkpt>
      <trkpt lat="42.71914" lon="0.62797">
        <ele>1564.6006</ele>
        <time>2026-07-05T10:40:04+02:00</time>
      </trkpt>
      <trkpt lat="42.71919" lon="0.62797">
        <ele>1563.2998</ele>
        <time>2026-07-05T10:40:19+02:00</time>
      </trkpt>
      <trkpt lat="42.71923" lon="0.62794">
        <ele>1562</ele>
        <time>2026-07-05T10:40:26+02:00</time>
      </trkpt>
      <trkpt lat="42.71927" lon="0.62791">
        <ele>1557.4004</ele>
        <time>2026-07-05T10:40:31+02:00</time>
      </trkpt>
      <trkpt lat="42.71932" lon="0.62791">
        <ele>1555.9004</ele>
        <time>2026-07-05T10:40:35+02:00</time>
      </trkpt>
      <trkpt lat="42.71935" lon="0.62787">
        <ele>1554.2998</ele>
        <time>2026-07-05T10:40:39+02:00</time>
      </trkpt>
      <trkpt lat="42.7194" lon="0.62781">
        <ele>1549.7002</ele>
        <time>2026-07-05T10:40:44+02:00</time>
      </trkpt>
      <trkpt lat="42.71944" lon="0.62778">
        <ele>1547.9004</ele>
        <time>2026-07-05T10:40:50+02:00</time>
      </trkpt>
      <trkpt lat="42.71949" lon="0.62778">
        <ele>1545.7002</ele>
        <time>2026-07-05T10:40:56+02:00</time>
      </trkpt>
      <trkpt lat="42.71953" lon="0.62783">
        <ele>1543.2998</ele>
        <time>2026-07-05T10:41:03+02:00</time>
      </trkpt>
      <trkpt lat="42.71957" lon="0.62788">
        <ele>1547.9004</ele>
        <time>2026-07-05T10:41:10+02:00</time>
      </trkpt>
      <trkpt lat="42.71962" lon="0.62792">
        <ele>1545.2998</ele>
        <time>2026-07-05T10:41:15+02:00</time>
      </trkpt>
      <trkpt lat="42.71967" lon="0.62796">
        <ele>1547.1006</ele>
        <time>2026-07-05T10:41:21+02:00</time>
      </trkpt>
      <trkpt lat="42.71972" lon="0.62801">
        <ele>1544.2002</ele>
        <time>2026-07-05T10:41:26+02:00</time>
      </trkpt>
      <trkpt lat="42.71976" lon="0.62805">
        <ele>1549.1006</ele>
        <time>2026-07-05T10:41:30+02:00</time>
      </trkpt>
      <trkpt lat="42.71979" lon="0.62809">
        <ele>1546.1006</ele>
        <time>2026-07-05T10:41:36+02:00</time>
      </trkpt>
      <trkpt lat="42.71984" lon="0.62811">
        <ele>1547.9004</ele>
        <time>2026-07-05T10:41:42+02:00</time>
      </trkpt>
      <trkpt lat="42.71988" lon="0.62815">
        <ele>1547.9004</ele>
        <time>2026-07-05T10:41:48+02:00</time>
      </trkpt>
      <trkpt lat="42.71992" lon="0.62819">
        <ele>1544.6006</ele>
        <time>2026-07-05T10:41:52+02:00</time>
      </trkpt>
      <trkpt lat="42.71995" lon="0.62825">
        <ele>1549.7002</ele>
        <time>2026-07-05T10:41:58+02:00</time>
      </trkpt>
      <trkpt lat="42.71997" lon="0.62829">
        <ele>1551.2998</ele>
        <time>2026-07-05T10:42:02+02:00</time>
      </trkpt>
      <trkpt lat="42.72001" lon="0.62834">
        <ele>1551.2998</ele>
        <time>2026-07-05T10:42:07+02:00</time>
      </trkpt>
      <trkpt lat="42.72005" lon="0.62838">
        <ele>1552.6006</ele>
        <time>2026-07-05T10:42:14+02:00</time>
      </trkpt>
      <trkpt lat="42.72009" lon="0.62841">
        <ele>1552.6006</ele>
        <time>2026-07-05T10:42:19+02:00</time>
      </trkpt>
      <trkpt lat="42.72013" lon="0.62846">
        <ele>1553.5</ele>
        <time>2026-07-05T10:42:24+02:00</time>
      </trkpt>
      <trkpt lat="42.72017" lon="0.62851">
        <ele>1549.5</ele>
        <time>2026-07-05T10:42:30+02:00</time>
      </trkpt>
      <trkpt lat="42.72021" lon="0.62855">
        <ele>1554.1006</ele>
        <time>2026-07-05T10:42:37+02:00</time>
      </trkpt>
      <trkpt lat="42.72024" lon="0.6286">
        <ele>1549.9004</ele>
        <time>2026-07-05T10:42:45+02:00</time>
      </trkpt>
      <trkpt lat="42.72028" lon="0.62864">
        <ele>1550.1006</ele>
        <time>2026-07-05T10:42:50+02:00</time>
      </trkpt>
      <trkpt lat="42.72033" lon="0.62869">
        <ele>1550.1006</ele>
        <time>2026-07-05T10:42:55+02:00</time>
      </trkpt>
      <trkpt lat="42.72037" lon="0.62873">
        <ele>1550</ele>
        <time>2026-07-05T10:43:01+02:00</time>
      </trkpt>
      <trkpt lat="42.7204" lon="0.62877">
        <ele>1550</ele>
        <time>2026-07-05T10:43:06+02:00</time>
      </trkpt>
      <trkpt lat="42.72044" lon="0.62882">
        <ele>1549.7998</ele>
        <time>2026-07-05T10:43:13+02:00</time>
      </trkpt>
      <trkpt lat="42.72048" lon="0.62886">
        <ele>1545.4004</ele>
        <time>2026-07-05T10:43:19+02:00</time>
      </trkpt>
      <trkpt lat="42.72052" lon="0.6289">
        <ele>1549.5</ele>
        <time>2026-07-05T10:43:25+02:00</time>
      </trkpt>
      <trkpt lat="42.72056" lon="0.62896">
        <ele>1545.2002</ele>
        <time>2026-07-05T10:43:30+02:00</time>
      </trkpt>
      <trkpt lat="42.72059" lon="0.62902">
        <ele>1549.1006</ele>
        <time>2026-07-05T10:43:36+02:00</time>
      </trkpt>
      <trkpt lat="42.72064" lon="0.62906">
        <ele>1548.9004</ele>
        <time>2026-07-05T10:43:42+02:00</time>
      </trkpt>
      <trkpt lat="42.72068" lon="0.6291">
        <ele>1545</ele>
        <time>2026-07-05T10:43:47+02:00</time>
      </trkpt>
      <trkpt lat="42.72073" lon="0.62915">
        <ele>1544.7998</ele>
        <time>2026-07-05T10:43:51+02:00</time>
      </trkpt>
      <trkpt lat="42.72077" lon="0.62917">
        <ele>1544.7998</ele>
        <time>2026-07-05T10:43:56+02:00</time>
      </trkpt>
      <trkpt lat="42.72081" lon="0.62923">
        <ele>1544.4004</ele>
        <time>2026-07-05T10:44:01+02:00</time>
      </trkpt>
      <trkpt lat="42.72084" lon="0.62927">
        <ele>1544.4004</ele>
        <time>2026-07-05T10:44:07+02:00</time>
      </trkpt>
      <trkpt lat="42.72087" lon="0.62932">
        <ele>1543.7002</ele>
        <time>2026-07-05T10:44:12+02:00</time>
      </trkpt>
      <trkpt lat="42.72091" lon="0.62938">
        <ele>1543.7002</ele>
        <time>2026-07-05T10:44:16+02:00</time>
      </trkpt>
      <trkpt lat="42.72094" lon="0.62943">
        <ele>1542.7002</ele>
        <time>2026-07-05T10:44:21+02:00</time>
      </trkpt>
      <trkpt lat="42.72098" lon="0.62947">
        <ele>1542.7002</ele>
        <time>2026-07-05T10:44:25+02:00</time>
      </trkpt>
      <trkpt lat="42.72101" lon="0.62952">
        <ele>1541.5</ele>
        <time>2026-07-05T10:44:30+02:00</time>
      </trkpt>
      <trkpt lat="42.72105" lon="0.62956">
        <ele>1537.7002</ele>
        <time>2026-07-05T10:44:36+02:00</time>
      </trkpt>
      <trkpt lat="42.72108" lon="0.62961">
        <ele>1540.1006</ele>
        <time>2026-07-05T10:44:42+02:00</time>
      </trkpt>
      <trkpt lat="42.72106" lon="0.62968">
        <ele>1542.4004</ele>
        <time>2026-07-05T10:44:48+02:00</time>
      </trkpt>
      <trkpt lat="42.72109" lon="0.62974">
        <ele>1544.6006</ele>
        <time>2026-07-05T10:44:53+02:00</time>
      </trkpt>
      <trkpt lat="42.72108" lon="0.62981">
        <ele>1544.6006</ele>
        <time>2026-07-05T10:45:05+02:00</time>
      </trkpt>
      <trkpt lat="42.72109" lon="0.62986">
        <ele>1546.4004</ele>
        <time>2026-07-05T10:45:11+02:00</time>
      </trkpt>
      <trkpt lat="42.7211" lon="0.62993">
        <ele>1544.6006</ele>
        <time>2026-07-05T10:45:15+02:00</time>
      </trkpt>
      <trkpt lat="42.7211" lon="0.62999">
        <ele>1548.1006</ele>
        <time>2026-07-05T10:45:18+02:00</time>
      </trkpt>
      <trkpt lat="42.72112" lon="0.63005">
        <ele>1546.1006</ele>
        <time>2026-07-05T10:45:25+02:00</time>
      </trkpt>
      <trkpt lat="42.72115" lon="0.6301">
        <ele>1547.5</ele>
        <time>2026-07-05T10:45:28+02:00</time>
      </trkpt>
      <trkpt lat="42.72118" lon="0.63015">
        <ele>1544</ele>
        <time>2026-07-05T10:45:33+02:00</time>
      </trkpt>
      <trkpt lat="42.72122" lon="0.6302">
        <ele>1545.1006</ele>
        <time>2026-07-05T10:45:36+02:00</time>
      </trkpt>
      <trkpt lat="42.72126" lon="0.63023">
        <ele>1541.6006</ele>
        <time>2026-07-05T10:45:40+02:00</time>
      </trkpt>
      <trkpt lat="42.72127" lon="0.63029">
        <ele>1542.5</ele>
        <time>2026-07-05T10:45:48+02:00</time>
      </trkpt>
      <trkpt lat="42.72128" lon="0.63036">
        <ele>1543.2998</ele>
        <time>2026-07-05T10:45:55+02:00</time>
      </trkpt>
      <trkpt lat="42.72127" lon="0.63043">
        <ele>1543.2998</ele>
        <time>2026-07-05T10:46:03+02:00</time>
      </trkpt>
      <trkpt lat="42.72124" lon="0.63048">
        <ele>1543.9004</ele>
        <time>2026-07-05T10:46:08+02:00</time>
      </trkpt>
      <trkpt lat="42.72124" lon="0.63055">
        <ele>1544.4004</ele>
        <time>2026-07-05T10:46:14+02:00</time>
      </trkpt>
      <trkpt lat="42.72125" lon="0.63061">
        <ele>1544.9004</ele>
        <time>2026-07-05T10:46:19+02:00</time>
      </trkpt>
      <trkpt lat="42.72126" lon="0.63069">
        <ele>1545.2002</ele>
        <time>2026-07-05T10:46:25+02:00</time>
      </trkpt>
      <trkpt lat="42.72127" lon="0.63076">
        <ele>1545.2002</ele>
        <time>2026-07-05T10:46:28+02:00</time>
      </trkpt>
      <trkpt lat="42.72123" lon="0.63081">
        <ele>1545.4004</ele>
        <time>2026-07-05T10:46:32+02:00</time>
      </trkpt>
      <trkpt lat="42.72123" lon="0.63088">
        <ele>1545.6006</ele>
        <time>2026-07-05T10:46:39+02:00</time>
      </trkpt>
      <trkpt lat="42.72124" lon="0.63095">
        <ele>1545.7002</ele>
        <time>2026-07-05T10:46:45+02:00</time>
      </trkpt>
      <trkpt lat="42.72126" lon="0.63103">
        <ele>1545.6006</ele>
        <time>2026-07-05T10:46:50+02:00</time>
      </trkpt>
      <trkpt lat="42.72128" lon="0.6311">
        <ele>1545.6006</ele>
        <time>2026-07-05T10:46:56+02:00</time>
      </trkpt>
      <trkpt lat="42.72129" lon="0.63116">
        <ele>1541.1006</ele>
        <time>2026-07-05T10:47:01+02:00</time>
      </trkpt>
      <trkpt lat="42.72131" lon="0.63122">
        <ele>1540.9004</ele>
        <time>2026-07-05T10:47:07+02:00</time>
      </trkpt>
      <trkpt lat="42.72133" lon="0.63128">
        <ele>1540.9004</ele>
        <time>2026-07-05T10:47:11+02:00</time>
      </trkpt>
      <trkpt lat="42.72135" lon="0.63135">
        <ele>1540.6006</ele>
        <time>2026-07-05T10:47:15+02:00</time>
      </trkpt>
      <trkpt lat="42.72137" lon="0.63141">
        <ele>1536</ele>
        <time>2026-07-05T10:47:21+02:00</time>
      </trkpt>
      <trkpt lat="42.7214" lon="0.63147">
        <ele>1535.7998</ele>
        <time>2026-07-05T10:47:25+02:00</time>
      </trkpt>
      <trkpt lat="42.72142" lon="0.63154">
        <ele>1531.2998</ele>
        <time>2026-07-05T10:47:33+02:00</time>
      </trkpt>
      <trkpt lat="42.72143" lon="0.6316">
        <ele>1531.1006</ele>
        <time>2026-07-05T10:47:39+02:00</time>
      </trkpt>
      <trkpt lat="42.72147" lon="0.63164">
        <ele>1531</ele>
        <time>2026-07-05T10:47:44+02:00</time>
      </trkpt>
      <trkpt lat="42.72148" lon="0.6317">
        <ele>1526.5</ele>
        <time>2026-07-05T10:47:49+02:00</time>
      </trkpt>
      <trkpt lat="42.72151" lon="0.63177">
        <ele>1526.5</ele>
        <time>2026-07-05T10:47:55+02:00</time>
      </trkpt>
      <trkpt lat="42.72153" lon="0.63183">
        <ele>1526.6006</ele>
        <time>2026-07-05T10:48:27+02:00</time>
      </trkpt>
      <trkpt lat="42.72154" lon="0.63189">
        <ele>1526.7998</ele>
        <time>2026-07-05T10:48:32+02:00</time>
      </trkpt>
      <trkpt lat="42.72154" lon="0.63196">
        <ele>1522.2002</ele>
        <time>2026-07-05T10:48:43+02:00</time>
      </trkpt>
      <trkpt lat="42.72156" lon="0.63202">
        <ele>1522.4004</ele>
        <time>2026-07-05T10:48:52+02:00</time>
      </trkpt>
      <trkpt lat="42.72162" lon="0.632">
        <ele>1517.7998</ele>
        <time>2026-07-05T10:51:06+02:00</time>
      </trkpt>
      <trkpt lat="42.72158" lon="0.63204">
        <ele>1522.4004</ele>
        <time>2026-07-05T10:51:40+02:00</time>
      </trkpt>
      <trkpt lat="42.72158" lon="0.6321">
        <ele>1522.7002</ele>
        <time>2026-07-05T10:52:00+02:00</time>
      </trkpt>
      <trkpt lat="42.72158" lon="0.63216">
        <ele>1523</ele>
        <time>2026-07-05T10:52:08+02:00</time>
      </trkpt>
      <trkpt lat="42.72158" lon="0.63224">
        <ele>1523.4004</ele>
        <time>2026-07-05T10:52:14+02:00</time>
      </trkpt>
      <trkpt lat="42.72158" lon="0.63231">
        <ele>1523.4004</ele>
        <time>2026-07-05T10:52:23+02:00</time>
      </trkpt>
      <trkpt lat="42.72155" lon="0.63235">
        <ele>1523.5</ele>
        <time>2026-07-05T10:52:29+02:00</time>
      </trkpt>
      <trkpt lat="42.72152" lon="0.6324">
        <ele>1528.7998</ele>
        <time>2026-07-05T10:52:33+02:00</time>
      </trkpt>
      <trkpt lat="42.7215" lon="0.63246">
        <ele>1528.7998</ele>
        <time>2026-07-05T10:52:38+02:00</time>
      </trkpt>
      <trkpt lat="42.72149" lon="0.63253">
        <ele>1528.9004</ele>
        <time>2026-07-05T10:52:43+02:00</time>
      </trkpt>
      <trkpt lat="42.72149" lon="0.6326">
        <ele>1529</ele>
        <time>2026-07-05T10:52:47+02:00</time>
      </trkpt>
      <trkpt lat="42.72149" lon="0.63266">
        <ele>1529</ele>
        <time>2026-07-05T10:52:52+02:00</time>
      </trkpt>
      <trkpt lat="42.7215" lon="0.63273">
        <ele>1528.7998</ele>
        <time>2026-07-05T10:52:58+02:00</time>
      </trkpt>
      <trkpt lat="42.72152" lon="0.6328">
        <ele>1528.4004</ele>
        <time>2026-07-05T10:53:02+02:00</time>
      </trkpt>
      <trkpt lat="42.72152" lon="0.63287">
        <ele>1527.9004</ele>
        <time>2026-07-05T10:53:07+02:00</time>
      </trkpt>
      <trkpt lat="42.7215" lon="0.63294">
        <ele>1527.2002</ele>
        <time>2026-07-05T10:53:15+02:00</time>
      </trkpt>
      <trkpt lat="42.7215" lon="0.633">
        <ele>1527.2002</ele>
        <time>2026-07-05T10:53:22+02:00</time>
      </trkpt>
      <trkpt lat="42.72151" lon="0.63306">
        <ele>1526.2998</ele>
        <time>2026-07-05T10:53:26+02:00</time>
      </trkpt>
      <trkpt lat="42.72151" lon="0.63313">
        <ele>1525.2002</ele>
        <time>2026-07-05T10:53:31+02:00</time>
      </trkpt>
      <trkpt lat="42.72149" lon="0.63318">
        <ele>1523.7998</ele>
        <time>2026-07-05T10:53:36+02:00</time>
      </trkpt>
      <trkpt lat="42.72149" lon="0.63325">
        <ele>1523.7998</ele>
        <time>2026-07-05T10:53:42+02:00</time>
      </trkpt>
      <trkpt lat="42.7215" lon="0.63332">
        <ele>1522.4004</ele>
        <time>2026-07-05T10:53:51+02:00</time>
      </trkpt>
      <trkpt lat="42.72152" lon="0.63337">
        <ele>1520.7002</ele>
        <time>2026-07-05T10:54:18+02:00</time>
      </trkpt>
      <trkpt lat="42.72148" lon="0.6334">
        <ele>1527.5</ele>
        <time>2026-07-05T10:54:23+02:00</time>
      </trkpt>
      <trkpt lat="42.72144" lon="0.63346">
        <ele>1525.7998</ele>
        <time>2026-07-05T10:54:29+02:00</time>
      </trkpt>
      <trkpt lat="42.72145" lon="0.63353">
        <ele>1524</ele>
        <time>2026-07-05T10:54:34+02:00</time>
      </trkpt>
      <trkpt lat="42.72143" lon="0.6336">
        <ele>1524</ele>
        <time>2026-07-05T10:54:40+02:00</time>
      </trkpt>
      <trkpt lat="42.72142" lon="0.63366">
        <ele>1522.1006</ele>
        <time>2026-07-05T10:54:46+02:00</time>
      </trkpt>
      <trkpt lat="42.72142" lon="0.63372">
        <ele>1519.9004</ele>
        <time>2026-07-05T10:54:50+02:00</time>
      </trkpt>
      <trkpt lat="42.72141" lon="0.6338">
        <ele>1524.1006</ele>
        <time>2026-07-05T10:54:57+02:00</time>
      </trkpt>
      <trkpt lat="42.7214" lon="0.63386">
        <ele>1521.7002</ele>
        <time>2026-07-05T10:55:02+02:00</time>
      </trkpt>
      <trkpt lat="42.72139" lon="0.63393">
        <ele>1521.7002</ele>
        <time>2026-07-05T10:55:05+02:00</time>
      </trkpt>
      <trkpt lat="42.72139" lon="0.63399">
        <ele>1519.2998</ele>
        <time>2026-07-05T10:55:09+02:00</time>
      </trkpt>
      <trkpt lat="42.7214" lon="0.63405">
        <ele>1516.7002</ele>
        <time>2026-07-05T10:55:14+02:00</time>
      </trkpt>
      <trkpt lat="42.72138" lon="0.63412">
        <ele>1514.2002</ele>
        <time>2026-07-05T10:55:18+02:00</time>
      </trkpt>
      <trkpt lat="42.72136" lon="0.63419">
        <ele>1514.2002</ele>
        <time>2026-07-05T10:55:23+02:00</time>
      </trkpt>
      <trkpt lat="42.72136" lon="0.63427">
        <ele>1511.6006</ele>
        <time>2026-07-05T10:55:28+02:00</time>
      </trkpt>
      <trkpt lat="42.72135" lon="0.63434">
        <ele>1514.7002</ele>
        <time>2026-07-05T10:55:35+02:00</time>
      </trkpt>
      <trkpt lat="42.72133" lon="0.6344">
        <ele>1511.9004</ele>
        <time>2026-07-05T10:55:43+02:00</time>
      </trkpt>
      <trkpt lat="42.72134" lon="0.63446">
        <ele>1511.9004</ele>
        <time>2026-07-05T10:55:47+02:00</time>
      </trkpt>
      <trkpt lat="42.72133" lon="0.63452">
        <ele>1509</ele>
        <time>2026-07-05T10:55:51+02:00</time>
      </trkpt>
      <trkpt lat="42.72134" lon="0.63459">
        <ele>1506.1006</ele>
        <time>2026-07-05T10:55:57+02:00</time>
      </trkpt>
      <trkpt lat="42.72133" lon="0.63465">
        <ele>1503.1006</ele>
        <time>2026-07-05T10:56:01+02:00</time>
      </trkpt>
      <trkpt lat="42.7213" lon="0.63471">
        <ele>1503.1006</ele>
        <time>2026-07-05T10:56:05+02:00</time>
      </trkpt>
      <trkpt lat="42.72125" lon="0.63474">
        <ele>1505.1006</ele>
        <time>2026-07-05T10:56:10+02:00</time>
      </trkpt>
      <trkpt lat="42.72121" lon="0.63479">
        <ele>1510</ele>
        <time>2026-07-05T10:56:14+02:00</time>
      </trkpt>
      <trkpt lat="42.72118" lon="0.63484">
        <ele>1506.9004</ele>
        <time>2026-07-05T10:56:19+02:00</time>
      </trkpt>
      <trkpt lat="42.72116" lon="0.6349">
        <ele>1508.4004</ele>
        <time>2026-07-05T10:56:23+02:00</time>
      </trkpt>
      <trkpt lat="42.72113" lon="0.63496">
        <ele>1508.4004</ele>
        <time>2026-07-05T10:56:27+02:00</time>
      </trkpt>
      <trkpt lat="42.72112" lon="0.63503">
        <ele>1505.2998</ele>
        <time>2026-07-05T10:56:32+02:00</time>
      </trkpt>
      <trkpt lat="42.72108" lon="0.63507">
        <ele>1506.7998</ele>
        <time>2026-07-05T10:56:37+02:00</time>
      </trkpt>
      <trkpt lat="42.72105" lon="0.63512">
        <ele>1506.7998</ele>
        <time>2026-07-05T10:56:41+02:00</time>
      </trkpt>
      <trkpt lat="42.72103" lon="0.6352">
        <ele>1508.5</ele>
        <time>2026-07-05T10:56:46+02:00</time>
      </trkpt>
      <trkpt lat="42.72102" lon="0.63527">
        <ele>1505.7002</ele>
        <time>2026-07-05T10:56:50+02:00</time>
      </trkpt>
      <trkpt lat="42.72097" lon="0.6353">
        <ele>1510.2998</ele>
        <time>2026-07-05T10:56:55+02:00</time>
      </trkpt>
      <trkpt lat="42.72093" lon="0.63534">
        <ele>1507.6006</ele>
        <time>2026-07-05T10:57:00+02:00</time>
      </trkpt>
      <trkpt lat="42.7209" lon="0.63539">
        <ele>1512.2002</ele>
        <time>2026-07-05T10:57:07+02:00</time>
      </trkpt>
      <trkpt lat="42.72087" lon="0.63546">
        <ele>1509.7002</ele>
        <time>2026-07-05T10:57:11+02:00</time>
      </trkpt>
      <trkpt lat="42.72087" lon="0.63552">
        <ele>1507.4004</ele>
        <time>2026-07-05T10:57:15+02:00</time>
      </trkpt>
      <trkpt lat="42.72087" lon="0.63559">
        <ele>1505.2998</ele>
        <time>2026-07-05T10:57:21+02:00</time>
      </trkpt>
      <trkpt lat="42.72087" lon="0.63565">
        <ele>1505.2998</ele>
        <time>2026-07-05T10:57:29+02:00</time>
      </trkpt>
      <trkpt lat="42.72087" lon="0.63572">
        <ele>1503.2998</ele>
        <time>2026-07-05T10:57:35+02:00</time>
      </trkpt>
      <trkpt lat="42.72085" lon="0.63579">
        <ele>1501.2998</ele>
        <time>2026-07-05T10:57:41+02:00</time>
      </trkpt>
      <trkpt lat="42.72085" lon="0.63586">
        <ele>1503.7002</ele>
        <time>2026-07-05T10:57:46+02:00</time>
      </trkpt>
      <trkpt lat="42.72086" lon="0.63592">
        <ele>1497.4004</ele>
        <time>2026-07-05T10:57:51+02:00</time>
      </trkpt>
      <trkpt lat="42.72086" lon="0.63599">
        <ele>1497.4004</ele>
        <time>2026-07-05T10:57:55+02:00</time>
      </trkpt>
      <trkpt lat="42.72084" lon="0.63606">
        <ele>1499.7002</ele>
        <time>2026-07-05T10:57:59+02:00</time>
      </trkpt>
      <trkpt lat="42.7208" lon="0.63611">
        <ele>1497.2998</ele>
        <time>2026-07-05T10:58:05+02:00</time>
      </trkpt>
      <trkpt lat="42.72077" lon="0.63616">
        <ele>1501.9004</ele>
        <time>2026-07-05T10:58:10+02:00</time>
      </trkpt>
      <trkpt lat="42.72076" lon="0.63623">
        <ele>1499.5</ele>
        <time>2026-07-05T10:58:15+02:00</time>
      </trkpt>
      <trkpt lat="42.72071" lon="0.63626">
        <ele>1504.2002</ele>
        <time>2026-07-05T10:58:19+02:00</time>
      </trkpt>
      <trkpt lat="42.72066" lon="0.6363">
        <ele>1501.7002</ele>
        <time>2026-07-05T10:58:23+02:00</time>
      </trkpt>
      <trkpt lat="42.72063" lon="0.63636">
        <ele>1504.1006</ele>
        <time>2026-07-05T10:58:28+02:00</time>
      </trkpt>
      <trkpt lat="42.7206" lon="0.63641">
        <ele>1504.1006</ele>
        <time>2026-07-05T10:58:33+02:00</time>
      </trkpt>
      <trkpt lat="42.72058" lon="0.63647">
        <ele>1506.5</ele>
        <time>2026-07-05T10:58:37+02:00</time>
      </trkpt>
      <trkpt lat="42.72056" lon="0.63654">
        <ele>1503.7002</ele>
        <time>2026-07-05T10:58:42+02:00</time>
      </trkpt>
      <trkpt lat="42.72054" lon="0.63661">
        <ele>1501</ele>
        <time>2026-07-05T10:58:49+02:00</time>
      </trkpt>
      <trkpt lat="42.72053" lon="0.63667">
        <ele>1506.1006</ele>
        <time>2026-07-05T10:58:54+02:00</time>
      </trkpt>
      <trkpt lat="42.72049" lon="0.63672">
        <ele>1503.6006</ele>
        <time>2026-07-05T10:58:59+02:00</time>
      </trkpt>
      <trkpt lat="42.72047" lon="0.6368">
        <ele>1506.6006</ele>
        <time>2026-07-05T10:59:05+02:00</time>
      </trkpt>
      <trkpt lat="42.72045" lon="0.63685">
        <ele>1506.6006</ele>
        <time>2026-07-05T10:59:09+02:00</time>
      </trkpt>
      <trkpt lat="42.72044" lon="0.63692">
        <ele>1504.7998</ele>
        <time>2026-07-05T10:59:15+02:00</time>
      </trkpt>
      <trkpt lat="42.72044" lon="0.63699">
        <ele>1503.2002</ele>
        <time>2026-07-05T10:59:20+02:00</time>
      </trkpt>
      <trkpt lat="42.7204" lon="0.63704">
        <ele>1506.4004</ele>
        <time>2026-07-05T10:59:29+02:00</time>
      </trkpt>
      <trkpt lat="42.72039" lon="0.63711">
        <ele>1506.4004</ele>
        <time>2026-07-05T10:59:35+02:00</time>
      </trkpt>
      <trkpt lat="42.7204" lon="0.63718">
        <ele>1504.7002</ele>
        <time>2026-07-05T10:59:39+02:00</time>
      </trkpt>
      <trkpt lat="42.72039" lon="0.63724">
        <ele>1503</ele>
        <time>2026-07-05T10:59:45+02:00</time>
      </trkpt>
      <trkpt lat="42.7204" lon="0.63731">
        <ele>1501.2998</ele>
        <time>2026-07-05T10:59:50+02:00</time>
      </trkpt>
      <trkpt lat="42.72037" lon="0.63737">
        <ele>1501.2998</ele>
        <time>2026-07-05T10:59:55+02:00</time>
      </trkpt>
      <trkpt lat="42.72036" lon="0.63743">
        <ele>1499.6006</ele>
        <time>2026-07-05T10:59:59+02:00</time>
      </trkpt>
      <trkpt lat="42.72034" lon="0.63749">
        <ele>1502</ele>
        <time>2026-07-05T11:00:04+02:00</time>
      </trkpt>
      <trkpt lat="42.72032" lon="0.63756">
        <ele>1500.2002</ele>
        <time>2026-07-05T11:00:08+02:00</time>
      </trkpt>
      <trkpt lat="42.7203" lon="0.63763">
        <ele>1500.2002</ele>
        <time>2026-07-05T11:00:13+02:00</time>
      </trkpt>
      <trkpt lat="42.7203" lon="0.6377">
        <ele>1498.2998</ele>
        <time>2026-07-05T11:00:20+02:00</time>
      </trkpt>
      <trkpt lat="42.72029" lon="0.63775">
        <ele>1496.2998</ele>
        <time>2026-07-05T11:00:25+02:00</time>
      </trkpt>
      <trkpt lat="42.72027" lon="0.63782">
        <ele>1498.5</ele>
        <time>2026-07-05T11:00:30+02:00</time>
      </trkpt>
      <trkpt lat="42.72026" lon="0.63788">
        <ele>1498.5</ele>
        <time>2026-07-05T11:00:35+02:00</time>
      </trkpt>
      <trkpt lat="42.72025" lon="0.63795">
        <ele>1496.2002</ele>
        <time>2026-07-05T11:00:44+02:00</time>
      </trkpt>
      <trkpt lat="42.72024" lon="0.63801">
        <ele>1493.7998</ele>
        <time>2026-07-05T11:00:54+02:00</time>
      </trkpt>
      <trkpt lat="42.72021" lon="0.63806">
        <ele>1497.9004</ele>
        <time>2026-07-05T11:01:01+02:00</time>
      </trkpt>
      <trkpt lat="42.72019" lon="0.63813">
        <ele>1495.2998</ele>
        <time>2026-07-05T11:01:05+02:00</time>
      </trkpt>
      <trkpt lat="42.72017" lon="0.63819">
        <ele>1492.5</ele>
        <time>2026-07-05T11:01:10+02:00</time>
      </trkpt>
      <trkpt lat="42.72013" lon="0.63823">
        <ele>1496.5</ele>
        <time>2026-07-05T11:01:14+02:00</time>
      </trkpt>
      <trkpt lat="42.7201" lon="0.63828">
        <ele>1493.5</ele>
        <time>2026-07-05T11:01:19+02:00</time>
      </trkpt>
      <trkpt lat="42.72007" lon="0.63833">
        <ele>1494.2002</ele>
        <time>2026-07-05T11:01:24+02:00</time>
      </trkpt>
      <trkpt lat="42.72005" lon="0.63839">
        <ele>1494.2002</ele>
        <time>2026-07-05T11:01:29+02:00</time>
      </trkpt>
      <trkpt lat="42.71999" lon="0.63842">
        <ele>1494.4004</ele>
        <time>2026-07-05T11:01:34+02:00</time>
      </trkpt>
      <trkpt lat="42.71995" lon="0.63846">
        <ele>1497.7998</ele>
        <time>2026-07-05T11:01:39+02:00</time>
      </trkpt>
      <trkpt lat="42.71992" lon="0.63851">
        <ele>1494.4004</ele>
        <time>2026-07-05T11:01:47+02:00</time>
      </trkpt>
      <trkpt lat="42.71987" lon="0.63854">
        <ele>1497.5</ele>
        <time>2026-07-05T11:01:53+02:00</time>
      </trkpt>
      <trkpt lat="42.71982" lon="0.63857">
        <ele>1500.4004</ele>
        <time>2026-07-05T11:02:00+02:00</time>
      </trkpt>
      <trkpt lat="42.71977" lon="0.63857">
        <ele>1503</ele>
        <time>2026-07-05T11:02:05+02:00</time>
      </trkpt>
      <trkpt lat="42.71972" lon="0.6386">
        <ele>1499.7002</ele>
        <time>2026-07-05T11:02:10+02:00</time>
      </trkpt>
      <trkpt lat="42.71967" lon="0.63862">
        <ele>1502.1006</ele>
        <time>2026-07-05T11:02:14+02:00</time>
      </trkpt>
      <trkpt lat="42.71963" lon="0.63865">
        <ele>1504.4004</ele>
        <time>2026-07-05T11:02:21+02:00</time>
      </trkpt>
      <trkpt lat="42.71958" lon="0.63869">
        <ele>1503.1006</ele>
        <time>2026-07-05T11:02:26+02:00</time>
      </trkpt>
      <trkpt lat="42.71954" lon="0.63872">
        <ele>1503.1006</ele>
        <time>2026-07-05T11:02:31+02:00</time>
      </trkpt>
      <trkpt lat="42.71949" lon="0.63876">
        <ele>1501.7998</ele>
        <time>2026-07-05T11:02:36+02:00</time>
      </trkpt>
      <trkpt lat="42.71945" lon="0.63878">
        <ele>1503.7998</ele>
        <time>2026-07-05T11:02:40+02:00</time>
      </trkpt>
      <trkpt lat="42.7194" lon="0.63882">
        <ele>1505.7002</ele>
        <time>2026-07-05T11:02:46+02:00</time>
      </trkpt>
      <trkpt lat="42.71935" lon="0.63885">
        <ele>1502.7002</ele>
        <time>2026-07-05T11:02:50+02:00</time>
      </trkpt>
      <trkpt lat="42.7193" lon="0.63889">
        <ele>1504.5</ele>
        <time>2026-07-05T11:02:54+02:00</time>
      </trkpt>
      <trkpt lat="42.71926" lon="0.63892">
        <ele>1506.4004</ele>
        <time>2026-07-05T11:02:58+02:00</time>
      </trkpt>
      <trkpt lat="42.71926" lon="0.639">
        <ele>1503.6006</ele>
        <time>2026-07-05T11:03:01+02:00</time>
      </trkpt>
      <trkpt lat="42.71924" lon="0.63907">
        <ele>1501</ele>
        <time>2026-07-05T11:03:06+02:00</time>
      </trkpt>
      <trkpt lat="42.71924" lon="0.63914">
        <ele>1498.6006</ele>
        <time>2026-07-05T11:03:10+02:00</time>
      </trkpt>
      <trkpt lat="42.71924" lon="0.6392">
        <ele>1496.5</ele>
        <time>2026-07-05T11:03:14+02:00</time>
      </trkpt>
      <trkpt lat="42.71923" lon="0.63928">
        <ele>1494.7002</ele>
        <time>2026-07-05T11:03:19+02:00</time>
      </trkpt>
      <trkpt lat="42.71923" lon="0.63934">
        <ele>1494.7002</ele>
        <time>2026-07-05T11:03:24+02:00</time>
      </trkpt>
      <trkpt lat="42.71922" lon="0.63941">
        <ele>1493.1006</ele>
        <time>2026-07-05T11:03:28+02:00</time>
      </trkpt>
      <trkpt lat="42.71922" lon="0.63947">
        <ele>1491.5</ele>
        <time>2026-07-05T11:03:32+02:00</time>
      </trkpt>
      <trkpt lat="42.71922" lon="0.63956">
        <ele>1490.2002</ele>
        <time>2026-07-05T11:03:38+02:00</time>
      </trkpt>
      <trkpt lat="42.71922" lon="0.63963">
        <ele>1488.9004</ele>
        <time>2026-07-05T11:03:43+02:00</time>
      </trkpt>
      <trkpt lat="42.71922" lon="0.6397">
        <ele>1487.7998</ele>
        <time>2026-07-05T11:03:48+02:00</time>
      </trkpt>
      <trkpt lat="42.71921" lon="0.63976">
        <ele>1487.7998</ele>
        <time>2026-07-05T11:03:52+02:00</time>
      </trkpt>
      <trkpt lat="42.7192" lon="0.63983">
        <ele>1489.2998</ele>
        <time>2026-07-05T11:03:56+02:00</time>
      </trkpt>
      <trkpt lat="42.71918" lon="0.63988">
        <ele>1488.5</ele>
        <time>2026-07-05T11:04:01+02:00</time>
      </trkpt>
      <trkpt lat="42.71915" lon="0.63994">
        <ele>1488.5</ele>
        <time>2026-07-05T11:04:06+02:00</time>
      </trkpt>
      <trkpt lat="42.71913" lon="0.64">
        <ele>1490.6006</ele>
        <time>2026-07-05T11:04:11+02:00</time>
      </trkpt>
      <trkpt lat="42.71909" lon="0.64005">
        <ele>1490.1006</ele>
        <time>2026-07-05T11:04:16+02:00</time>
      </trkpt>
      <trkpt lat="42.71905" lon="0.64009">
        <ele>1493</ele>
        <time>2026-07-05T11:04:21+02:00</time>
      </trkpt>
      <trkpt lat="42.71901" lon="0.64013">
        <ele>1495.9004</ele>
        <time>2026-07-05T11:04:27+02:00</time>
      </trkpt>
      <trkpt lat="42.71896" lon="0.64015">
        <ele>1495.9004</ele>
        <time>2026-07-05T11:04:32+02:00</time>
      </trkpt>
      <trkpt lat="42.71892" lon="0.64018">
        <ele>1499.1006</ele>
        <time>2026-07-05T11:04:36+02:00</time>
      </trkpt>
      <trkpt lat="42.71891" lon="0.64025">
        <ele>1499.2002</ele>
        <time>2026-07-05T11:04:40+02:00</time>
      </trkpt>
      <trkpt lat="42.7189" lon="0.64032">
        <ele>1499.1006</ele>
        <time>2026-07-05T11:04:45+02:00</time>
      </trkpt>
      <trkpt lat="42.71887" lon="0.64037">
        <ele>1502.4004</ele>
        <time>2026-07-05T11:04:52+02:00</time>
      </trkpt>
      <trkpt lat="42.71887" lon="0.64045">
        <ele>1501.9004</ele>
        <time>2026-07-05T11:04:57+02:00</time>
      </trkpt>
      <trkpt lat="42.71887" lon="0.64053">
        <ele>1500.5</ele>
        <time>2026-07-05T11:05:02+02:00</time>
      </trkpt>
      <trkpt lat="42.71887" lon="0.64059">
        <ele>1498.7998</ele>
        <time>2026-07-05T11:05:06+02:00</time>
      </trkpt>
      <trkpt lat="42.71886" lon="0.64066">
        <ele>1497.1006</ele>
        <time>2026-07-05T11:05:11+02:00</time>
      </trkpt>
      <trkpt lat="42.71886" lon="0.64074">
        <ele>1495.5</ele>
        <time>2026-07-05T11:05:17+02:00</time>
      </trkpt>
      <trkpt lat="42.71888" lon="0.6408">
        <ele>1495.5</ele>
        <time>2026-07-05T11:05:21+02:00</time>
      </trkpt>
      <trkpt lat="42.71889" lon="0.64087">
        <ele>1493.7002</ele>
        <time>2026-07-05T11:05:26+02:00</time>
      </trkpt>
      <trkpt lat="42.71888" lon="0.64094">
        <ele>1492.2998</ele>
        <time>2026-07-05T11:05:29+02:00</time>
      </trkpt>
      <trkpt lat="42.71889" lon="0.64101">
        <ele>1492.1006</ele>
        <time>2026-07-05T11:05:34+02:00</time>
      </trkpt>
      <trkpt lat="42.7189" lon="0.64108">
        <ele>1492.2998</ele>
        <time>2026-07-05T11:05:41+02:00</time>
      </trkpt>
      <trkpt lat="42.71889" lon="0.64114">
        <ele>1493</ele>
        <time>2026-07-05T11:05:51+02:00</time>
      </trkpt>
      <trkpt lat="42.71893" lon="0.64118">
        <ele>1493.7998</ele>
        <time>2026-07-05T11:05:55+02:00</time>
      </trkpt>
      <trkpt lat="42.71895" lon="0.64124">
        <ele>1493.7998</ele>
        <time>2026-07-05T11:05:59+02:00</time>
      </trkpt>
      <trkpt lat="42.71898" lon="0.6413">
        <ele>1493.6006</ele>
        <time>2026-07-05T11:06:04+02:00</time>
      </trkpt>
      <trkpt lat="42.71902" lon="0.64134">
        <ele>1495.2002</ele>
        <time>2026-07-05T11:06:08+02:00</time>
      </trkpt>
      <trkpt lat="42.71904" lon="0.6414">
        <ele>1492.7002</ele>
        <time>2026-07-05T11:06:14+02:00</time>
      </trkpt>
      <trkpt lat="42.71905" lon="0.64146">
        <ele>1494.7002</ele>
        <time>2026-07-05T11:06:20+02:00</time>
      </trkpt>
      <trkpt lat="42.71905" lon="0.64154">
        <ele>1496</ele>
        <time>2026-07-05T11:06:25+02:00</time>
      </trkpt>
      <trkpt lat="42.71904" lon="0.64161">
        <ele>1496.7002</ele>
        <time>2026-07-05T11:06:30+02:00</time>
      </trkpt>
      <trkpt lat="42.71903" lon="0.64168">
        <ele>1497</ele>
        <time>2026-07-05T11:06:35+02:00</time>
      </trkpt>
      <trkpt lat="42.71903" lon="0.64174">
        <ele>1497</ele>
        <time>2026-07-05T11:06:39+02:00</time>
      </trkpt>
      <trkpt lat="42.71901" lon="0.6418">
        <ele>1499.7002</ele>
        <time>2026-07-05T11:06:44+02:00</time>
      </trkpt>
      <trkpt lat="42.719" lon="0.64186">
        <ele>1499.5</ele>
        <time>2026-07-05T11:06:48+02:00</time>
      </trkpt>
      <trkpt lat="42.71898" lon="0.64193">
        <ele>1499.5</ele>
        <time>2026-07-05T11:06:54+02:00</time>
      </trkpt>
      <trkpt lat="42.71899" lon="0.64201">
        <ele>1499.5</ele>
        <time>2026-07-05T11:06:59+02:00</time>
      </trkpt>
      <trkpt lat="42.719" lon="0.64207">
        <ele>1499.2998</ele>
        <time>2026-07-05T11:07:04+02:00</time>
      </trkpt>
      <trkpt lat="42.71904" lon="0.64216">
        <ele>1496.2998</ele>
        <time>2026-07-05T11:07:09+02:00</time>
      </trkpt>
      <trkpt lat="42.71904" lon="0.64222">
        <ele>1495.9004</ele>
        <time>2026-07-05T11:07:13+02:00</time>
      </trkpt>
      <trkpt lat="42.71903" lon="0.64228">
        <ele>1495.5</ele>
        <time>2026-07-05T11:07:18+02:00</time>
      </trkpt>
      <trkpt lat="42.71903" lon="0.64236">
        <ele>1495.5</ele>
        <time>2026-07-05T11:07:23+02:00</time>
      </trkpt>
      <trkpt lat="42.71902" lon="0.64244">
        <ele>1497.9004</ele>
        <time>2026-07-05T11:07:29+02:00</time>
      </trkpt>
      <trkpt lat="42.71903" lon="0.6425">
        <ele>1494.2002</ele>
        <time>2026-07-05T11:07:34+02:00</time>
      </trkpt>
      <trkpt lat="42.71904" lon="0.64257">
        <ele>1493.5</ele>
        <time>2026-07-05T11:07:40+02:00</time>
      </trkpt>
      <trkpt lat="42.71903" lon="0.64264">
        <ele>1492.6006</ele>
        <time>2026-07-05T11:07:45+02:00</time>
      </trkpt>
      <trkpt lat="42.71901" lon="0.6427">
        <ele>1496</ele>
        <time>2026-07-05T11:07:50+02:00</time>
      </trkpt>
      <trkpt lat="42.719" lon="0.64276">
        <ele>1495.2998</ele>
        <time>2026-07-05T11:07:56+02:00</time>
      </trkpt>
      <trkpt lat="42.71899" lon="0.64282">
        <ele>1494.5</ele>
        <time>2026-07-05T11:08:01+02:00</time>
      </trkpt>
      <trkpt lat="42.71898" lon="0.64289">
        <ele>1493.5</ele>
        <time>2026-07-05T11:08:07+02:00</time>
      </trkpt>
      <trkpt lat="42.71897" lon="0.64295">
        <ele>1493.5</ele>
        <time>2026-07-05T11:08:11+02:00</time>
      </trkpt>
      <trkpt lat="42.71896" lon="0.64303">
        <ele>1492.5</ele>
        <time>2026-07-05T11:08:15+02:00</time>
      </trkpt>
      <trkpt lat="42.71895" lon="0.6431">
        <ele>1495.9004</ele>
        <time>2026-07-05T11:08:20+02:00</time>
      </trkpt>
      <trkpt lat="42.71894" lon="0.64318">
        <ele>1494.7998</ele>
        <time>2026-07-05T11:08:24+02:00</time>
      </trkpt>
      <trkpt lat="42.71893" lon="0.64325">
        <ele>1493.6006</ele>
        <time>2026-07-05T11:08:28+02:00</time>
      </trkpt>
      <trkpt lat="42.71892" lon="0.64332">
        <ele>1492.4004</ele>
        <time>2026-07-05T11:08:35+02:00</time>
      </trkpt>
      <trkpt lat="42.71891" lon="0.64338">
        <ele>1492.4004</ele>
        <time>2026-07-05T11:08:40+02:00</time>
      </trkpt>
      <trkpt lat="42.71889" lon="0.64344">
        <ele>1496.4004</ele>
        <time>2026-07-05T11:08:44+02:00</time>
      </trkpt>
      <trkpt lat="42.71889" lon="0.64351">
        <ele>1495.1006</ele>
        <time>2026-07-05T11:08:48+02:00</time>
      </trkpt>
      <trkpt lat="42.71886" lon="0.64357">
        <ele>1493.7998</ele>
        <time>2026-07-05T11:08:54+02:00</time>
      </trkpt>
      <trkpt lat="42.71885" lon="0.64363">
        <ele>1493.7998</ele>
        <time>2026-07-05T11:09:03+02:00</time>
      </trkpt>
      <trkpt lat="42.71883" lon="0.64368">
        <ele>1498.5</ele>
        <time>2026-07-05T11:09:21+02:00</time>
      </trkpt>
      <trkpt lat="42.71882" lon="0.64375">
        <ele>1497.2002</ele>
        <time>2026-07-05T11:09:27+02:00</time>
      </trkpt>
      <trkpt lat="42.7188" lon="0.64381">
        <ele>1497.2002</ele>
        <time>2026-07-05T11:09:32+02:00</time>
      </trkpt>
      <trkpt lat="42.71879" lon="0.64389">
        <ele>1495.9004</ele>
        <time>2026-07-05T11:09:36+02:00</time>
      </trkpt>
      <trkpt lat="42.71878" lon="0.64396">
        <ele>1494.5</ele>
        <time>2026-07-05T11:09:42+02:00</time>
      </trkpt>
      <trkpt lat="42.71878" lon="0.64403">
        <ele>1493.2002</ele>
        <time>2026-07-05T11:09:47+02:00</time>
      </trkpt>
      <trkpt lat="42.71879" lon="0.64409">
        <ele>1491.7998</ele>
        <time>2026-07-05T11:09:54+02:00</time>
      </trkpt>
      <trkpt lat="42.71882" lon="0.64415">
        <ele>1491.7998</ele>
        <time>2026-07-05T11:10:11+02:00</time>
      </trkpt>
      <trkpt lat="42.71886" lon="0.64421">
        <ele>1484.4004</ele>
        <time>2026-07-05T11:10:20+02:00</time>
      </trkpt>
      <trkpt lat="42.71889" lon="0.64427">
        <ele>1483.2002</ele>
        <time>2026-07-05T11:10:26+02:00</time>
      </trkpt>
      <trkpt lat="42.7189" lon="0.64433">
        <ele>1477</ele>
        <time>2026-07-05T11:10:35+02:00</time>
      </trkpt>
      <trkpt lat="42.71893" lon="0.64439">
        <ele>1475.7998</ele>
        <time>2026-07-05T11:10:39+02:00</time>
      </trkpt>
      <trkpt lat="42.71892" lon="0.64446">
        <ele>1474.6006</ele>
        <time>2026-07-05T11:10:43+02:00</time>
      </trkpt>
      <trkpt lat="42.71891" lon="0.64453">
        <ele>1473.4004</ele>
        <time>2026-07-05T11:10:48+02:00</time>
      </trkpt>
      <trkpt lat="42.71889" lon="0.64458">
        <ele>1479.4004</ele>
        <time>2026-07-05T11:10:53+02:00</time>
      </trkpt>
      <trkpt lat="42.71888" lon="0.64465">
        <ele>1478</ele>
        <time>2026-07-05T11:10:59+02:00</time>
      </trkpt>
      <trkpt lat="42.71888" lon="0.64472">
        <ele>1476.7002</ele>
        <time>2026-07-05T11:11:03+02:00</time>
      </trkpt>
      <trkpt lat="42.71886" lon="0.64478">
        <ele>1475.2998</ele>
        <time>2026-07-05T11:11:07+02:00</time>
      </trkpt>
      <trkpt lat="42.71888" lon="0.64483">
        <ele>1475.2998</ele>
        <time>2026-07-05T11:11:15+02:00</time>
      </trkpt>
      <trkpt lat="42.71893" lon="0.64485">
        <ele>1468.2002</ele>
        <time>2026-07-05T11:11:40+02:00</time>
      </trkpt>
      <trkpt lat="42.71894" lon="0.64491">
        <ele>1468.2002</ele>
        <time>2026-07-05T11:12:56+02:00</time>
      </trkpt>
      <trkpt lat="42.71896" lon="0.64498">
        <ele>1461.2998</ele>
        <time>2026-07-05T11:13:09+02:00</time>
      </trkpt>
      <trkpt lat="42.71897" lon="0.64504">
        <ele>1460.1006</ele>
        <time>2026-07-05T11:13:15+02:00</time>
      </trkpt>
      <trkpt lat="42.71899" lon="0.64512">
        <ele>1458.9004</ele>
        <time>2026-07-05T11:13:21+02:00</time>
      </trkpt>
      <trkpt lat="42.71898" lon="0.64518">
        <ele>1458.9004</ele>
        <time>2026-07-05T11:13:28+02:00</time>
      </trkpt>
      <trkpt lat="42.71897" lon="0.64526">
        <ele>1457.7002</ele>
        <time>2026-07-05T11:13:34+02:00</time>
      </trkpt>
      <trkpt lat="42.71898" lon="0.64532">
        <ele>1456.4004</ele>
        <time>2026-07-05T11:13:38+02:00</time>
      </trkpt>
      <trkpt lat="42.71897" lon="0.64539">
        <ele>1454.7998</ele>
        <time>2026-07-05T11:13:43+02:00</time>
      </trkpt>
      <trkpt lat="42.71894" lon="0.64545">
        <ele>1458.7998</ele>
        <time>2026-07-05T11:13:48+02:00</time>
      </trkpt>
      <trkpt lat="42.71891" lon="0.6455">
        <ele>1458.7998</ele>
        <time>2026-07-05T11:13:54+02:00</time>
      </trkpt>
      <trkpt lat="42.71887" lon="0.64555">
        <ele>1462.9004</ele>
        <time>2026-07-05T11:13:59+02:00</time>
      </trkpt>
      <trkpt lat="42.71883" lon="0.64558">
        <ele>1469</ele>
        <time>2026-07-05T11:14:05+02:00</time>
      </trkpt>
      <trkpt lat="42.7188" lon="0.64563">
        <ele>1466.5</ele>
        <time>2026-07-05T11:14:08+02:00</time>
      </trkpt>
      <trkpt lat="42.71876" lon="0.64568">
        <ele>1472.7998</ele>
        <time>2026-07-05T11:14:13+02:00</time>
      </trkpt>
      <trkpt lat="42.71871" lon="0.64571">
        <ele>1469.7998</ele>
        <time>2026-07-05T11:14:18+02:00</time>
      </trkpt>
      <trkpt lat="42.71869" lon="0.64577">
        <ele>1476.2002</ele>
        <time>2026-07-05T11:14:22+02:00</time>
      </trkpt>
      <trkpt lat="42.71867" lon="0.64584">
        <ele>1473</ele>
        <time>2026-07-05T11:14:26+02:00</time>
      </trkpt>
      <trkpt lat="42.71864" lon="0.64589">
        <ele>1476.4004</ele>
        <time>2026-07-05T11:14:31+02:00</time>
      </trkpt>
      <trkpt lat="42.71863" lon="0.64595">
        <ele>1476.4004</ele>
        <time>2026-07-05T11:14:35+02:00</time>
      </trkpt>
      <trkpt lat="42.71863" lon="0.64602">
        <ele>1473</ele>
        <time>2026-07-05T11:14:39+02:00</time>
      </trkpt>
      <trkpt lat="42.71864" lon="0.64609">
        <ele>1469.2002</ele>
        <time>2026-07-05T11:14:45+02:00</time>
      </trkpt>
      <trkpt lat="42.71861" lon="0.64614">
        <ele>1465.2998</ele>
        <time>2026-07-05T11:14:50+02:00</time>
      </trkpt>
      <trkpt lat="42.71859" lon="0.6462">
        <ele>1465.2998</ele>
        <time>2026-07-05T11:14:54+02:00</time>
      </trkpt>
      <trkpt lat="42.71857" lon="0.64628">
        <ele>1468.2998</ele>
        <time>2026-07-05T11:14:59+02:00</time>
      </trkpt>
      <trkpt lat="42.71855" lon="0.64633">
        <ele>1465.1006</ele>
        <time>2026-07-05T11:15:04+02:00</time>
      </trkpt>
      <trkpt lat="42.71853" lon="0.64639">
        <ele>1462.2002</ele>
        <time>2026-07-05T11:15:08+02:00</time>
      </trkpt>
      <trkpt lat="42.71852" lon="0.64647">
        <ele>1462.2002</ele>
        <time>2026-07-05T11:15:13+02:00</time>
      </trkpt>
      <trkpt lat="42.71852" lon="0.64654">
        <ele>1460</ele>
        <time>2026-07-05T11:15:28+02:00</time>
      </trkpt>
      <trkpt lat="42.71851" lon="0.6466">
        <ele>1464.7998</ele>
        <time>2026-07-05T11:15:34+02:00</time>
      </trkpt>
      <trkpt lat="42.71852" lon="0.64668">
        <ele>1458.2998</ele>
        <time>2026-07-05T11:15:39+02:00</time>
      </trkpt>
      <trkpt lat="42.7185" lon="0.64675">
        <ele>1463.5</ele>
        <time>2026-07-05T11:15:44+02:00</time>
      </trkpt>
      <trkpt lat="42.71847" lon="0.6468">
        <ele>1463.5</ele>
        <time>2026-07-05T11:15:50+02:00</time>
      </trkpt>
      <trkpt lat="42.71845" lon="0.64686">
        <ele>1468.5</ele>
        <time>2026-07-05T11:15:55+02:00</time>
      </trkpt>
      <trkpt lat="42.71842" lon="0.64692">
        <ele>1467.9004</ele>
        <time>2026-07-05T11:16:02+02:00</time>
      </trkpt>
      <trkpt lat="42.71839" lon="0.64697">
        <ele>1467.9004</ele>
        <time>2026-07-05T11:16:11+02:00</time>
      </trkpt>
      <trkpt lat="42.71837" lon="0.64703">
        <ele>1472.4004</ele>
        <time>2026-07-05T11:16:18+02:00</time>
      </trkpt>
      <trkpt lat="42.71834" lon="0.64709">
        <ele>1471.6006</ele>
        <time>2026-07-05T11:16:29+02:00</time>
      </trkpt>
      <trkpt lat="42.71834" lon="0.64716">
        <ele>1471.6006</ele>
        <time>2026-07-05T11:16:36+02:00</time>
      </trkpt>
      <trkpt lat="42.71832" lon="0.64723">
        <ele>1475.7002</ele>
        <time>2026-07-05T11:16:42+02:00</time>
      </trkpt>
      <trkpt lat="42.7183" lon="0.64729">
        <ele>1474.5</ele>
        <time>2026-07-05T11:16:48+02:00</time>
      </trkpt>
      <trkpt lat="42.71828" lon="0.64735">
        <ele>1473.1006</ele>
        <time>2026-07-05T11:16:52+02:00</time>
      </trkpt>
      <trkpt lat="42.71827" lon="0.64741">
        <ele>1473.1006</ele>
        <time>2026-07-05T11:16:56+02:00</time>
      </trkpt>
      <trkpt lat="42.71826" lon="0.64748">
        <ele>1476.5</ele>
        <time>2026-07-05T11:17:02+02:00</time>
      </trkpt>
      <trkpt lat="42.71823" lon="0.64755">
        <ele>1474.9004</ele>
        <time>2026-07-05T11:17:07+02:00</time>
      </trkpt>
      <trkpt lat="42.7182" lon="0.64762">
        <ele>1478.1006</ele>
        <time>2026-07-05T11:17:12+02:00</time>
      </trkpt>
      <trkpt lat="42.71817" lon="0.64768">
        <ele>1476.4004</ele>
        <time>2026-07-05T11:17:18+02:00</time>
      </trkpt>
      <trkpt lat="42.71815" lon="0.64775">
        <ele>1476.4004</ele>
        <time>2026-07-05T11:17:22+02:00</time>
      </trkpt>
      <trkpt lat="42.71813" lon="0.64781">
        <ele>1479.2998</ele>
        <time>2026-07-05T11:17:27+02:00</time>
      </trkpt>
      <trkpt lat="42.7181" lon="0.64786">
        <ele>1477.5</ele>
        <time>2026-07-05T11:17:33+02:00</time>
      </trkpt>
      <trkpt lat="42.71808" lon="0.64793">
        <ele>1477.5</ele>
        <time>2026-07-05T11:17:38+02:00</time>
      </trkpt>
      <trkpt lat="42.71805" lon="0.64798">
        <ele>1480.1006</ele>
        <time>2026-07-05T11:17:42+02:00</time>
      </trkpt>
      <trkpt lat="42.71803" lon="0.64804">
        <ele>1478.2998</ele>
        <time>2026-07-05T11:17:46+02:00</time>
      </trkpt>
      <trkpt lat="42.71801" lon="0.64811">
        <ele>1480.5</ele>
        <time>2026-07-05T11:17:52+02:00</time>
      </trkpt>
      <trkpt lat="42.71798" lon="0.64817">
        <ele>1480.5</ele>
        <time>2026-07-05T11:17:57+02:00</time>
      </trkpt>
      <trkpt lat="42.71795" lon="0.64823">
        <ele>1478.7002</ele>
        <time>2026-07-05T11:18:02+02:00</time>
      </trkpt>
      <trkpt lat="42.71792" lon="0.6483">
        <ele>1480.9004</ele>
        <time>2026-07-05T11:18:07+02:00</time>
      </trkpt>
      <trkpt lat="42.7179" lon="0.64835">
        <ele>1480.9004</ele>
        <time>2026-07-05T11:18:12+02:00</time>
      </trkpt>
      <trkpt lat="42.71787" lon="0.64842">
        <ele>1483.1006</ele>
        <time>2026-07-05T11:18:21+02:00</time>
      </trkpt>
      <trkpt lat="42.71785" lon="0.64849">
        <ele>1481.2998</ele>
        <time>2026-07-05T11:18:25+02:00</time>
      </trkpt>
      <trkpt lat="42.71785" lon="0.64855">
        <ele>1479.2998</ele>
        <time>2026-07-05T11:18:31+02:00</time>
      </trkpt>
      <trkpt lat="42.71784" lon="0.64862">
        <ele>1479.2998</ele>
        <time>2026-07-05T11:18:36+02:00</time>
      </trkpt>
      <trkpt lat="42.71784" lon="0.6487">
        <ele>1477.2998</ele>
        <time>2026-07-05T11:18:40+02:00</time>
      </trkpt>
      <trkpt lat="42.71783" lon="0.64876">
        <ele>1475.2002</ele>
        <time>2026-07-05T11:18:46+02:00</time>
      </trkpt>
      <trkpt lat="42.71782" lon="0.64883">
        <ele>1477.1006</ele>
        <time>2026-07-05T11:18:51+02:00</time>
      </trkpt>
      <trkpt lat="42.71779" lon="0.64888">
        <ele>1477.1006</ele>
        <time>2026-07-05T11:19:03+02:00</time>
      </trkpt>
      <trkpt lat="42.7178" lon="0.64894">
        <ele>1474.7998</ele>
        <time>2026-07-05T11:19:09+02:00</time>
      </trkpt>
      <trkpt lat="42.71778" lon="0.649">
        <ele>1472.5</ele>
        <time>2026-07-05T11:19:13+02:00</time>
      </trkpt>
      <trkpt lat="42.71777" lon="0.64907">
        <ele>1469.9004</ele>
        <time>2026-07-05T11:19:18+02:00</time>
      </trkpt>
      <trkpt lat="42.71773" lon="0.64912">
        <ele>1474.1006</ele>
        <time>2026-07-05T11:19:22+02:00</time>
      </trkpt>
      <trkpt lat="42.71773" lon="0.64919">
        <ele>1471.2998</ele>
        <time>2026-07-05T11:19:29+02:00</time>
      </trkpt>
      <trkpt lat="42.71771" lon="0.64926">
        <ele>1468.2002</ele>
        <time>2026-07-05T11:19:35+02:00</time>
      </trkpt>
      <trkpt lat="42.71769" lon="0.64933">
        <ele>1468.9004</ele>
        <time>2026-07-05T11:19:38+02:00</time>
      </trkpt>
      <trkpt lat="42.71769" lon="0.64939">
        <ele>1468.9004</ele>
        <time>2026-07-05T11:19:43+02:00</time>
      </trkpt>
      <trkpt lat="42.71767" lon="0.64946">
        <ele>1465.2998</ele>
        <time>2026-07-05T11:19:49+02:00</time>
      </trkpt>
      <trkpt lat="42.71765" lon="0.64952">
        <ele>1461.6006</ele>
        <time>2026-07-05T11:19:54+02:00</time>
      </trkpt>
      <trkpt lat="42.71762" lon="0.64957">
        <ele>1461.2002</ele>
        <time>2026-07-05T11:19:58+02:00</time>
      </trkpt>
      <trkpt lat="42.71761" lon="0.64964">
        <ele>1461.2002</ele>
        <time>2026-07-05T11:20:04+02:00</time>
      </trkpt>
      <trkpt lat="42.71759" lon="0.6497">
        <ele>1457.2998</ele>
        <time>2026-07-05T11:20:09+02:00</time>
      </trkpt>
      <trkpt lat="42.71759" lon="0.64977">
        <ele>1453.2998</ele>
        <time>2026-07-05T11:20:13+02:00</time>
      </trkpt>
      <trkpt lat="42.71759" lon="0.64985">
        <ele>1449.7002</ele>
        <time>2026-07-05T11:20:17+02:00</time>
      </trkpt>
      <trkpt lat="42.7176" lon="0.64991">
        <ele>1446.1006</ele>
        <time>2026-07-05T11:20:20+02:00</time>
      </trkpt>
      <trkpt lat="42.7176" lon="0.64998">
        <ele>1446.1006</ele>
        <time>2026-07-05T11:20:26+02:00</time>
      </trkpt>
      <trkpt lat="42.7176" lon="0.65006">
        <ele>1442.7002</ele>
        <time>2026-07-05T11:20:31+02:00</time>
      </trkpt>
      <trkpt lat="42.71759" lon="0.65013">
        <ele>1439.5</ele>
        <time>2026-07-05T11:20:36+02:00</time>
      </trkpt>
      <trkpt lat="42.71758" lon="0.65019">
        <ele>1436.7002</ele>
        <time>2026-07-05T11:20:39+02:00</time>
      </trkpt>
      <trkpt lat="42.7176" lon="0.65025">
        <ele>1436.7002</ele>
        <time>2026-07-05T11:20:42+02:00</time>
      </trkpt>
      <trkpt lat="42.71759" lon="0.65032">
        <ele>1434.2002</ele>
        <time>2026-07-05T11:20:49+02:00</time>
      </trkpt>
      <trkpt lat="42.71756" lon="0.65037">
        <ele>1434.7002</ele>
        <time>2026-07-05T11:20:57+02:00</time>
      </trkpt>
      <trkpt lat="42.71752" lon="0.65043">
        <ele>1432.9004</ele>
        <time>2026-07-05T11:21:03+02:00</time>
      </trkpt>
      <trkpt lat="42.71749" lon="0.65048">
        <ele>1435.4004</ele>
        <time>2026-07-05T11:21:07+02:00</time>
      </trkpt>
      <trkpt lat="42.71745" lon="0.65051">
        <ele>1433.7002</ele>
        <time>2026-07-05T11:21:12+02:00</time>
      </trkpt>
      <trkpt lat="42.7174" lon="0.65055">
        <ele>1436.2002</ele>
        <time>2026-07-05T11:21:17+02:00</time>
      </trkpt>
      <trkpt lat="42.71736" lon="0.6506">
        <ele>1437</ele>
        <time>2026-07-05T11:21:22+02:00</time>
      </trkpt>
      <trkpt lat="42.71731" lon="0.65063">
        <ele>1439.4004</ele>
        <time>2026-07-05T11:21:27+02:00</time>
      </trkpt>
      <trkpt lat="42.71728" lon="0.65067">
        <ele>1439.4004</ele>
        <time>2026-07-05T11:21:32+02:00</time>
      </trkpt>
      <trkpt lat="42.71723" lon="0.6507">
        <ele>1440.2998</ele>
        <time>2026-07-05T11:21:36+02:00</time>
      </trkpt>
      <trkpt lat="42.71718" lon="0.65073">
        <ele>1442.7002</ele>
        <time>2026-07-05T11:21:41+02:00</time>
      </trkpt>
      <trkpt lat="42.71714" lon="0.65076">
        <ele>1442.7002</ele>
        <time>2026-07-05T11:21:46+02:00</time>
      </trkpt>
      <trkpt lat="42.71709" lon="0.65078">
        <ele>1443.2002</ele>
        <time>2026-07-05T11:21:52+02:00</time>
      </trkpt>
      <trkpt lat="42.71705" lon="0.65082">
        <ele>1445.4004</ele>
        <time>2026-07-05T11:21:56+02:00</time>
      </trkpt>
      <trkpt lat="42.717" lon="0.65085">
        <ele>1447.5</ele>
        <time>2026-07-05T11:22:02+02:00</time>
      </trkpt>
      <trkpt lat="42.71695" lon="0.65089">
        <ele>1445.6006</ele>
        <time>2026-07-05T11:22:07+02:00</time>
      </trkpt>
      <trkpt lat="42.71691" lon="0.65092">
        <ele>1447.5</ele>
        <time>2026-07-05T11:22:11+02:00</time>
      </trkpt>
      <trkpt lat="42.71686" lon="0.65096">
        <ele>1447.4004</ele>
        <time>2026-07-05T11:22:16+02:00</time>
      </trkpt>
      <trkpt lat="42.71682" lon="0.651">
        <ele>1447.4004</ele>
        <time>2026-07-05T11:22:20+02:00</time>
      </trkpt>
      <trkpt lat="42.71676" lon="0.65105">
        <ele>1447</ele>
        <time>2026-07-05T11:22:24+02:00</time>
      </trkpt>
      <trkpt lat="42.71672" lon="0.65107">
        <ele>1448.6006</ele>
        <time>2026-07-05T11:22:29+02:00</time>
      </trkpt>
      <trkpt lat="42.71668" lon="0.65111">
        <ele>1447.7998</ele>
        <time>2026-07-05T11:22:35+02:00</time>
      </trkpt>
      <trkpt lat="42.71663" lon="0.65117">
        <ele>1447.7998</ele>
        <time>2026-07-05T11:22:40+02:00</time>
      </trkpt>
      <trkpt lat="42.71659" lon="0.6512">
        <ele>1447.4004</ele>
        <time>2026-07-05T11:22:45+02:00</time>
      </trkpt>
      <trkpt lat="42.71655" lon="0.65125">
        <ele>1448.6006</ele>
        <time>2026-07-05T11:22:50+02:00</time>
      </trkpt>
      <trkpt lat="42.7165" lon="0.65128">
        <ele>1448.6006</ele>
        <time>2026-07-05T11:22:55+02:00</time>
      </trkpt>
      <trkpt lat="42.71647" lon="0.65133">
        <ele>1448.2002</ele>
        <time>2026-07-05T11:23:01+02:00</time>
      </trkpt>
      <trkpt lat="42.71644" lon="0.65138">
        <ele>1447</ele>
        <time>2026-07-05T11:23:15+02:00</time>
      </trkpt>
      <trkpt lat="42.7164" lon="0.65141">
        <ele>1448</ele>
        <time>2026-07-05T11:23:29+02:00</time>
      </trkpt>
      <trkpt lat="42.71635" lon="0.65143">
        <ele>1448.9004</ele>
        <time>2026-07-05T11:24:19+02:00</time>
      </trkpt>
      <trkpt lat="42.71631" lon="0.65147">
        <ele>1448.1006</ele>
        <time>2026-07-05T11:24:30+02:00</time>
      </trkpt>
      <trkpt lat="42.71627" lon="0.65151">
        <ele>1449</ele>
        <time>2026-07-05T11:24:37+02:00</time>
      </trkpt>
      <trkpt lat="42.71623" lon="0.65152">
        <ele>1450.1006</ele>
        <time>2026-07-05T11:24:41+02:00</time>
      </trkpt>
      <trkpt lat="42.71618" lon="0.65152">
        <ele>1451.2002</ele>
        <time>2026-07-05T11:25:05+02:00</time>
      </trkpt>
      <trkpt lat="42.71613" lon="0.65152">
        <ele>1451.2002</ele>
        <time>2026-07-05T11:25:09+02:00</time>
      </trkpt>
      <trkpt lat="42.71609" lon="0.65153">
        <ele>1452.2998</ele>
        <time>2026-07-05T11:25:15+02:00</time>
      </trkpt>
      <trkpt lat="42.71604" lon="0.65154">
        <ele>1453.5</ele>
        <time>2026-07-05T11:25:21+02:00</time>
      </trkpt>
      <trkpt lat="42.71599" lon="0.65154">
        <ele>1454.2998</ele>
        <time>2026-07-05T11:25:27+02:00</time>
      </trkpt>
      <trkpt lat="42.71595" lon="0.65155">
        <ele>1454.2998</ele>
        <time>2026-07-05T11:25:33+02:00</time>
      </trkpt>
      <trkpt lat="42.7159" lon="0.65158">
        <ele>1455.5</ele>
        <time>2026-07-05T11:28:24+02:00</time>
      </trkpt>
      <trkpt lat="42.71587" lon="0.65163">
        <ele>1455.2998</ele>
        <time>2026-07-05T11:28:32+02:00</time>
      </trkpt>
      <trkpt lat="42.71588" lon="0.6517">
        <ele>1455.2998</ele>
        <time>2026-07-05T11:28:37+02:00</time>
      </trkpt>
      <trkpt lat="42.71589" lon="0.65177">
        <ele>1455.6006</ele>
        <time>2026-07-05T11:28:44+02:00</time>
      </trkpt>
      <trkpt lat="42.7159" lon="0.65185">
        <ele>1456.1006</ele>
        <time>2026-07-05T11:28:49+02:00</time>
      </trkpt>
      <trkpt lat="42.71593" lon="0.6519">
        <ele>1456.5</ele>
        <time>2026-07-05T11:28:54+02:00</time>
      </trkpt>
      <trkpt lat="42.71598" lon="0.65194">
        <ele>1455.2002</ele>
        <time>2026-07-05T11:28:59+02:00</time>
      </trkpt>
      <trkpt lat="42.71602" lon="0.65198">
        <ele>1454.2002</ele>
        <time>2026-07-05T11:29:20+02:00</time>
      </trkpt>
      <trkpt lat="42.71606" lon="0.65201">
        <ele>1452.9004</ele>
        <time>2026-07-05T11:29:33+02:00</time>
      </trkpt>
      <trkpt lat="42.71611" lon="0.65204">
        <ele>1452.9004</ele>
        <time>2026-07-05T11:29:38+02:00</time>
      </trkpt>
      <trkpt lat="42.71615" lon="0.65206">
        <ele>1452</ele>
        <time>2026-07-05T11:29:43+02:00</time>
      </trkpt>
      <trkpt lat="42.7162" lon="0.65211">
        <ele>1450.7002</ele>
        <time>2026-07-05T11:29:47+02:00</time>
      </trkpt>
      <trkpt lat="42.71624" lon="0.65216">
        <ele>1451.1006</ele>
        <time>2026-07-05T11:29:53+02:00</time>
      </trkpt>
      <trkpt lat="42.71629" lon="0.65219">
        <ele>1449.9004</ele>
        <time>2026-07-05T11:29:58+02:00</time>
      </trkpt>
      <trkpt lat="42.71634" lon="0.65222">
        <ele>1448.7002</ele>
        <time>2026-07-05T11:30:03+02:00</time>
      </trkpt>
      <trkpt lat="42.71639" lon="0.65225">
        <ele>1448.5</ele>
        <time>2026-07-05T11:30:08+02:00</time>
      </trkpt>
      <trkpt lat="42.71644" lon="0.65227">
        <ele>1447.4004</ele>
        <time>2026-07-05T11:30:13+02:00</time>
      </trkpt>
      <trkpt lat="42.71648" lon="0.65228">
        <ele>1447.4004</ele>
        <time>2026-07-05T11:30:17+02:00</time>
      </trkpt>
      <trkpt lat="42.71653" lon="0.6523">
        <ele>1446.2998</ele>
        <time>2026-07-05T11:30:21+02:00</time>
      </trkpt>
      <trkpt lat="42.71658" lon="0.65231">
        <ele>1445.2002</ele>
        <time>2026-07-05T11:30:26+02:00</time>
      </trkpt>
      <trkpt lat="42.71663" lon="0.65232">
        <ele>1444.7998</ele>
        <time>2026-07-05T11:30:30+02:00</time>
      </trkpt>
      <trkpt lat="42.71668" lon="0.65232">
        <ele>1444.7998</ele>
        <time>2026-07-05T11:30:34+02:00</time>
      </trkpt>
      <trkpt lat="42.71673" lon="0.65233">
        <ele>1443.6006</ele>
        <time>2026-07-05T11:30:38+02:00</time>
      </trkpt>
      <trkpt lat="42.71679" lon="0.65235">
        <ele>1442.4004</ele>
        <time>2026-07-05T11:30:43+02:00</time>
      </trkpt>
      <trkpt lat="42.71684" lon="0.65238">
        <ele>1441.2002</ele>
        <time>2026-07-05T11:30:49+02:00</time>
      </trkpt>
      <trkpt lat="42.71689" lon="0.6524">
        <ele>1440.6006</ele>
        <time>2026-07-05T11:30:54+02:00</time>
      </trkpt>
      <trkpt lat="42.71693" lon="0.65243">
        <ele>1440.6006</ele>
        <time>2026-07-05T11:30:58+02:00</time>
      </trkpt>
      <trkpt lat="42.71697" lon="0.65246">
        <ele>1439.5</ele>
        <time>2026-07-05T11:31:02+02:00</time>
      </trkpt>
      <trkpt lat="42.71702" lon="0.65248">
        <ele>1438.4004</ele>
        <time>2026-07-05T11:31:06+02:00</time>
      </trkpt>
      <trkpt lat="42.71706" lon="0.65251">
        <ele>1439</ele>
        <time>2026-07-05T11:31:11+02:00</time>
      </trkpt>
      <trkpt lat="42.71708" lon="0.65257">
        <ele>1437.9004</ele>
        <time>2026-07-05T11:31:25+02:00</time>
      </trkpt>
      <trkpt lat="42.71707" lon="0.65262">
        <ele>1439.6006</ele>
        <time>2026-07-05T11:31:31+02:00</time>
      </trkpt>
      <trkpt lat="42.71707" lon="0.65269">
        <ele>1439.1006</ele>
        <time>2026-07-05T11:31:46+02:00</time>
      </trkpt>
      <trkpt lat="42.71706" lon="0.65276">
        <ele>1441.2998</ele>
        <time>2026-07-05T11:31:51+02:00</time>
      </trkpt>
      <trkpt lat="42.71703" lon="0.65283">
        <ele>1442.4004</ele>
        <time>2026-07-05T11:31:56+02:00</time>
      </trkpt>
      <trkpt lat="42.71703" lon="0.6529">
        <ele>1442.4004</ele>
        <time>2026-07-05T11:32:01+02:00</time>
      </trkpt>
      <trkpt lat="42.71702" lon="0.65296">
        <ele>1443.7002</ele>
        <time>2026-07-05T11:32:05+02:00</time>
      </trkpt>
      <trkpt lat="42.71701" lon="0.65303">
        <ele>1445.1006</ele>
        <time>2026-07-05T11:32:12+02:00</time>
      </trkpt>
      <trkpt lat="42.71701" lon="0.6531">
        <ele>1446.7998</ele>
        <time>2026-07-05T11:32:17+02:00</time>
      </trkpt>
      <trkpt lat="42.71701" lon="0.65316">
        <ele>1446.7998</ele>
        <time>2026-07-05T11:32:22+02:00</time>
      </trkpt>
      <trkpt lat="42.71701" lon="0.65323">
        <ele>1448.6006</ele>
        <time>2026-07-05T11:32:27+02:00</time>
      </trkpt>
      <trkpt lat="42.71701" lon="0.6533">
        <ele>1450.6006</ele>
        <time>2026-07-05T11:32:35+02:00</time>
      </trkpt>
      <trkpt lat="42.71697" lon="0.65336">
        <ele>1455.2002</ele>
        <time>2026-07-05T11:33:17+02:00</time>
      </trkpt>
      <trkpt lat="42.71698" lon="0.65343">
        <ele>1455.2002</ele>
        <time>2026-07-05T11:49:57+02:00</time>
      </trkpt>
      <trkpt lat="42.71699" lon="0.65349">
        <ele>1457.5</ele>
        <time>2026-07-05T11:50:03+02:00</time>
      </trkpt>
      <trkpt lat="42.717" lon="0.65356">
        <ele>1457</ele>
        <time>2026-07-05T11:50:08+02:00</time>
      </trkpt>
      <trkpt lat="42.71704" lon="0.65359">
        <ele>1457</ele>
        <time>2026-07-05T11:50:13+02:00</time>
      </trkpt>
      <trkpt lat="42.71709" lon="0.65362">
        <ele>1456.4004</ele>
        <time>2026-07-05T11:50:17+02:00</time>
      </trkpt>
      <trkpt lat="42.71712" lon="0.65366">
        <ele>1456.4004</ele>
        <time>2026-07-05T11:50:22+02:00</time>
      </trkpt>
      <trkpt lat="42.71715" lon="0.65373">
        <ele>1455.7998</ele>
        <time>2026-07-05T11:50:29+02:00</time>
      </trkpt>
      <trkpt lat="42.71719" lon="0.65377">
        <ele>1457.9004</ele>
        <time>2026-07-05T11:50:34+02:00</time>
      </trkpt>
      <trkpt lat="42.71722" lon="0.65383">
        <ele>1454.9004</ele>
        <time>2026-07-05T11:50:40+02:00</time>
      </trkpt>
      <trkpt lat="42.71725" lon="0.65387">
        <ele>1457</ele>
        <time>2026-07-05T11:50:45+02:00</time>
      </trkpt>
      <trkpt lat="42.71728" lon="0.65392">
        <ele>1453.9004</ele>
        <time>2026-07-05T11:50:50+02:00</time>
      </trkpt>
      <trkpt lat="42.71732" lon="0.65397">
        <ele>1455.9004</ele>
        <time>2026-07-05T11:50:56+02:00</time>
      </trkpt>
      <trkpt lat="42.71734" lon="0.65403">
        <ele>1454.9004</ele>
        <time>2026-07-05T11:51:00+02:00</time>
      </trkpt>
      <trkpt lat="42.71737" lon="0.65409">
        <ele>1454.9004</ele>
        <time>2026-07-05T11:51:06+02:00</time>
      </trkpt>
      <trkpt lat="42.71739" lon="0.65415">
        <ele>1454.1006</ele>
        <time>2026-07-05T11:51:11+02:00</time>
      </trkpt>
      <trkpt lat="42.71741" lon="0.65421">
        <ele>1456.5</ele>
        <time>2026-07-05T11:51:17+02:00</time>
      </trkpt>
      <trkpt lat="42.71743" lon="0.65427">
        <ele>1456.5</ele>
        <time>2026-07-05T11:51:25+02:00</time>
      </trkpt>
      <trkpt lat="42.71746" lon="0.65432">
        <ele>1455.7002</ele>
        <time>2026-07-05T11:51:31+02:00</time>
      </trkpt>
      <trkpt lat="42.7175" lon="0.65438">
        <ele>1458.1006</ele>
        <time>2026-07-05T11:51:37+02:00</time>
      </trkpt>
      <trkpt lat="42.71754" lon="0.65441">
        <ele>1454.6006</ele>
        <time>2026-07-05T11:51:43+02:00</time>
      </trkpt>
      <trkpt lat="42.71759" lon="0.65445">
        <ele>1451.1006</ele>
        <time>2026-07-05T11:51:47+02:00</time>
      </trkpt>
      <trkpt lat="42.71763" lon="0.6545">
        <ele>1453.2998</ele>
        <time>2026-07-05T11:51:52+02:00</time>
      </trkpt>
      <trkpt lat="42.71766" lon="0.65455">
        <ele>1451.9004</ele>
        <time>2026-07-05T11:51:56+02:00</time>
      </trkpt>
      <trkpt lat="42.7177" lon="0.65459">
        <ele>1448.6006</ele>
        <time>2026-07-05T11:52:03+02:00</time>
      </trkpt>
      <trkpt lat="42.71774" lon="0.65464">
        <ele>1450.6006</ele>
        <time>2026-07-05T11:52:08+02:00</time>
      </trkpt>
      <trkpt lat="42.71777" lon="0.65469">
        <ele>1447.2998</ele>
        <time>2026-07-05T11:52:14+02:00</time>
      </trkpt>
      <trkpt lat="42.71781" lon="0.65474">
        <ele>1449.2002</ele>
        <time>2026-07-05T11:52:19+02:00</time>
      </trkpt>
      <trkpt lat="42.71785" lon="0.6548">
        <ele>1446.1006</ele>
        <time>2026-07-05T11:52:25+02:00</time>
      </trkpt>
      <trkpt lat="42.71787" lon="0.65486">
        <ele>1448</ele>
        <time>2026-07-05T11:52:31+02:00</time>
      </trkpt>
      <trkpt lat="42.7179" lon="0.65492">
        <ele>1446.9004</ele>
        <time>2026-07-05T11:52:38+02:00</time>
      </trkpt>
      <trkpt lat="42.71792" lon="0.65497">
        <ele>1448.6006</ele>
        <time>2026-07-05T11:52:44+02:00</time>
      </trkpt>
      <trkpt lat="42.71794" lon="0.65503">
        <ele>1448.6006</ele>
        <time>2026-07-05T11:52:48+02:00</time>
      </trkpt>
      <trkpt lat="42.71794" lon="0.6551">
        <ele>1450.2998</ele>
        <time>2026-07-05T11:52:52+02:00</time>
      </trkpt>
      <trkpt lat="42.71794" lon="0.65516">
        <ele>1452.1006</ele>
        <time>2026-07-05T11:52:56+02:00</time>
      </trkpt>
      <trkpt lat="42.71794" lon="0.65523">
        <ele>1452.1006</ele>
        <time>2026-07-05T11:53:03+02:00</time>
      </trkpt>
      <trkpt lat="42.71793" lon="0.65529">
        <ele>1453.9004</ele>
        <time>2026-07-05T11:53:11+02:00</time>
      </trkpt>
      <trkpt lat="42.71792" lon="0.65535">
        <ele>1455.7002</ele>
        <time>2026-07-05T11:53:18+02:00</time>
      </trkpt>
      <trkpt lat="42.71791" lon="0.65542">
        <ele>1457.5</ele>
        <time>2026-07-05T11:53:28+02:00</time>
      </trkpt>
      <trkpt lat="42.7179" lon="0.65548">
        <ele>1457.5</ele>
        <time>2026-07-05T11:53:34+02:00</time>
      </trkpt>
      <trkpt lat="42.7179" lon="0.65555">
        <ele>1459.2998</ele>
        <time>2026-07-05T11:53:41+02:00</time>
      </trkpt>
      <trkpt lat="42.71789" lon="0.65561">
        <ele>1461.2002</ele>
        <time>2026-07-05T11:53:47+02:00</time>
      </trkpt>
      <trkpt lat="42.71789" lon="0.65568">
        <ele>1467.1006</ele>
        <time>2026-07-05T11:53:53+02:00</time>
      </trkpt>
      <trkpt lat="42.71788" lon="0.65575">
        <ele>1469</ele>
        <time>2026-07-05T11:54:00+02:00</time>
      </trkpt>
      <trkpt lat="42.71786" lon="0.65581">
        <ele>1469</ele>
        <time>2026-07-05T11:54:06+02:00</time>
      </trkpt>
      <trkpt lat="42.71786" lon="0.65588">
        <ele>1470.9004</ele>
        <time>2026-07-05T11:54:14+02:00</time>
      </trkpt>
      <trkpt lat="42.71786" lon="0.65594">
        <ele>1472.6006</ele>
        <time>2026-07-05T11:54:22+02:00</time>
      </trkpt>
      <trkpt lat="42.71786" lon="0.65601">
        <ele>1474.1006</ele>
        <time>2026-07-05T11:54:30+02:00</time>
      </trkpt>
      <trkpt lat="42.71785" lon="0.65607">
        <ele>1474.1006</ele>
        <time>2026-07-05T11:54:38+02:00</time>
      </trkpt>
      <trkpt lat="42.71784" lon="0.65614">
        <ele>1475.6006</ele>
        <time>2026-07-05T11:54:42+02:00</time>
      </trkpt>
      <trkpt lat="42.71782" lon="0.65624">
        <ele>1481.2002</ele>
        <time>2026-07-05T11:54:47+02:00</time>
      </trkpt>
      <trkpt lat="42.71785" lon="0.65619">
        <ele>1476.9004</ele>
        <time>2026-07-05T11:54:55+02:00</time>
      </trkpt>
      <trkpt lat="42.71785" lon="0.65612">
        <ele>1475.6006</ele>
        <time>2026-07-05T11:55:02+02:00</time>
      </trkpt>
      <trkpt lat="42.7179" lon="0.6561">
        <ele>1471.4004</ele>
        <time>2026-07-05T11:55:07+02:00</time>
      </trkpt>
      <trkpt lat="42.71795" lon="0.6561">
        <ele>1471.4004</ele>
        <time>2026-07-05T11:55:11+02:00</time>
      </trkpt>
      <trkpt lat="42.71799" lon="0.65611">
        <ele>1467.2998</ele>
        <time>2026-07-05T11:55:14+02:00</time>
      </trkpt>
      <trkpt lat="42.71803" lon="0.65609">
        <ele>1461.9004</ele>
        <time>2026-07-05T11:55:24+02:00</time>
      </trkpt>
      <trkpt lat="42.71807" lon="0.65613">
        <ele>1463.4004</ele>
        <time>2026-07-05T11:55:29+02:00</time>
      </trkpt>
      <trkpt lat="42.71807" lon="0.6562">
        <ele>1464.7002</ele>
        <time>2026-07-05T11:55:36+02:00</time>
      </trkpt>
      <trkpt lat="42.71804" lon="0.65625">
        <ele>1464.7002</ele>
        <time>2026-07-05T11:55:51+02:00</time>
      </trkpt>
      <trkpt lat="42.718" lon="0.65626">
        <ele>1469.7998</ele>
        <time>2026-07-05T11:56:00+02:00</time>
      </trkpt>
      <trkpt lat="42.71798" lon="0.65633">
        <ele>1469.7998</ele>
        <time>2026-07-05T11:56:07+02:00</time>
      </trkpt>
      <trkpt lat="42.71795" lon="0.65638">
        <ele>1470.9004</ele>
        <time>2026-07-05T11:56:13+02:00</time>
      </trkpt>
      <trkpt lat="42.71791" lon="0.65642">
        <ele>1475</ele>
        <time>2026-07-05T11:56:19+02:00</time>
      </trkpt>
      <trkpt lat="42.71787" lon="0.65647">
        <ele>1480.2002</ele>
        <time>2026-07-05T11:56:26+02:00</time>
      </trkpt>
      <trkpt lat="42.71783" lon="0.65652">
        <ele>1480.2002</ele>
        <time>2026-07-05T11:56:35+02:00</time>
      </trkpt>
      <trkpt lat="42.7178" lon="0.65657">
        <ele>1485.2998</ele>
        <time>2026-07-05T11:56:41+02:00</time>
      </trkpt>
      <trkpt lat="42.71775" lon="0.6566">
        <ele>1489.6006</ele>
        <time>2026-07-05T11:56:48+02:00</time>
      </trkpt>
      <trkpt lat="42.71772" lon="0.65665">
        <ele>1490.2998</ele>
        <time>2026-07-05T11:56:55+02:00</time>
      </trkpt>
      <trkpt lat="42.71769" lon="0.6567">
        <ele>1495.2002</ele>
        <time>2026-07-05T11:57:02+02:00</time>
      </trkpt>
      <trkpt lat="42.71769" lon="0.65677">
        <ele>1495.2002</ele>
        <time>2026-07-05T11:57:08+02:00</time>
      </trkpt>
      <trkpt lat="42.71766" lon="0.65682">
        <ele>1495.5</ele>
        <time>2026-07-05T11:57:14+02:00</time>
      </trkpt>
      <trkpt lat="42.71763" lon="0.65687">
        <ele>1499.7002</ele>
        <time>2026-07-05T11:57:21+02:00</time>
      </trkpt>
      <trkpt lat="42.71761" lon="0.65693">
        <ele>1499.7002</ele>
        <time>2026-07-05T11:57:28+02:00</time>
      </trkpt>
      <trkpt lat="42.71759" lon="0.65699">
        <ele>1499.6006</ele>
        <time>2026-07-05T11:57:36+02:00</time>
      </trkpt>
      <trkpt lat="42.71755" lon="0.65704">
        <ele>1503.1006</ele>
        <time>2026-07-05T11:57:44+02:00</time>
      </trkpt>
      <trkpt lat="42.71751" lon="0.65708">
        <ele>1503.1006</ele>
        <time>2026-07-05T11:57:51+02:00</time>
      </trkpt>
      <trkpt lat="42.71749" lon="0.65715">
        <ele>1506.4004</ele>
        <time>2026-07-05T11:58:00+02:00</time>
      </trkpt>
      <trkpt lat="42.71746" lon="0.6572">
        <ele>1506.4004</ele>
        <time>2026-07-05T11:58:06+02:00</time>
      </trkpt>
      <trkpt lat="42.71743" lon="0.65725">
        <ele>1509.2002</ele>
        <time>2026-07-05T11:58:14+02:00</time>
      </trkpt>
      <trkpt lat="42.7174" lon="0.65731">
        <ele>1508.1006</ele>
        <time>2026-07-05T11:58:23+02:00</time>
      </trkpt>
      <trkpt lat="42.71735" lon="0.65733">
        <ele>1511.5</ele>
        <time>2026-07-05T11:58:28+02:00</time>
      </trkpt>
      <trkpt lat="42.71731" lon="0.65736">
        <ele>1515</ele>
        <time>2026-07-05T11:58:30+02:00</time>
      </trkpt>
      <trkpt lat="42.71729" lon="0.65742">
        <ele>1513.2998</ele>
        <time>2026-07-05T11:58:36+02:00</time>
      </trkpt>
      <trkpt lat="42.71725" lon="0.65746">
        <ele>1516.6006</ele>
        <time>2026-07-05T11:58:41+02:00</time>
      </trkpt>
      <trkpt lat="42.71723" lon="0.65753">
        <ele>1514.7002</ele>
        <time>2026-07-05T11:58:46+02:00</time>
      </trkpt>
      <trkpt lat="42.71723" lon="0.65759">
        <ele>1512.6006</ele>
        <time>2026-07-05T11:58:52+02:00</time>
      </trkpt>
      <trkpt lat="42.71722" lon="0.65765">
        <ele>1510.5</ele>
        <time>2026-07-05T11:58:57+02:00</time>
      </trkpt>
      <trkpt lat="42.71721" lon="0.65771">
        <ele>1510.5</ele>
        <time>2026-07-05T11:59:03+02:00</time>
      </trkpt>
      <trkpt lat="42.7172" lon="0.65778">
        <ele>1508.2998</ele>
        <time>2026-07-05T11:59:08+02:00</time>
      </trkpt>
      <trkpt lat="42.71719" lon="0.65784">
        <ele>1508.6006</ele>
        <time>2026-07-05T11:59:14+02:00</time>
      </trkpt>
      <trkpt lat="42.71717" lon="0.65791">
        <ele>1506.2998</ele>
        <time>2026-07-05T11:59:19+02:00</time>
      </trkpt>
      <trkpt lat="42.71716" lon="0.65798">
        <ele>1504.1006</ele>
        <time>2026-07-05T11:59:24+02:00</time>
      </trkpt>
      <trkpt lat="42.71715" lon="0.65805">
        <ele>1504.1006</ele>
        <time>2026-07-05T11:59:29+02:00</time>
      </trkpt>
      <trkpt lat="42.71714" lon="0.65811">
        <ele>1501.7998</ele>
        <time>2026-07-05T11:59:34+02:00</time>
      </trkpt>
      <trkpt lat="42.71713" lon="0.65818">
        <ele>1499.5</ele>
        <time>2026-07-05T11:59:39+02:00</time>
      </trkpt>
      <trkpt lat="42.71713" lon="0.65824">
        <ele>1499.9004</ele>
        <time>2026-07-05T11:59:45+02:00</time>
      </trkpt>
      <trkpt lat="42.71712" lon="0.6583">
        <ele>1499.9004</ele>
        <time>2026-07-05T11:59:50+02:00</time>
      </trkpt>
      <trkpt lat="42.71711" lon="0.65837">
        <ele>1497.7002</ele>
        <time>2026-07-05T11:59:54+02:00</time>
      </trkpt>
      <trkpt lat="42.7171" lon="0.65843">
        <ele>1495.4004</ele>
        <time>2026-07-05T11:59:58+02:00</time>
      </trkpt>
      <trkpt lat="42.71709" lon="0.65849">
        <ele>1495.4004</ele>
        <time>2026-07-05T12:00:03+02:00</time>
      </trkpt>
      <trkpt lat="42.71709" lon="0.65855">
        <ele>1493.2998</ele>
        <time>2026-07-05T12:00:08+02:00</time>
      </trkpt>
      <trkpt lat="42.71708" lon="0.65862">
        <ele>1491.1006</ele>
        <time>2026-07-05T12:00:13+02:00</time>
      </trkpt>
      <trkpt lat="42.71707" lon="0.65868">
        <ele>1489</ele>
        <time>2026-07-05T12:00:18+02:00</time>
      </trkpt>
      <trkpt lat="42.71706" lon="0.65875">
        <ele>1491.6006</ele>
        <time>2026-07-05T12:00:23+02:00</time>
      </trkpt>
      <trkpt lat="42.71705" lon="0.65881">
        <ele>1489.4004</ele>
        <time>2026-07-05T12:00:27+02:00</time>
      </trkpt>
      <trkpt lat="42.71705" lon="0.65888">
        <ele>1487.5</ele>
        <time>2026-07-05T12:00:33+02:00</time>
      </trkpt>
      <trkpt lat="42.71703" lon="0.65895">
        <ele>1485.7002</ele>
        <time>2026-07-05T12:00:39+02:00</time>
      </trkpt>
      <trkpt lat="42.71702" lon="0.65901">
        <ele>1485.7002</ele>
        <time>2026-07-05T12:00:44+02:00</time>
      </trkpt>
      <trkpt lat="42.71701" lon="0.65907">
        <ele>1484.2002</ele>
        <time>2026-07-05T12:00:49+02:00</time>
      </trkpt>
      <trkpt lat="42.71699" lon="0.65914">
        <ele>1485.2998</ele>
        <time>2026-07-05T12:00:55+02:00</time>
      </trkpt>
      <trkpt lat="42.71697" lon="0.65919">
        <ele>1484.2002</ele>
        <time>2026-07-05T12:00:59+02:00</time>
      </trkpt>
      <trkpt lat="42.71695" lon="0.65926">
        <ele>1484.2002</ele>
        <time>2026-07-05T12:01:04+02:00</time>
      </trkpt>
      <trkpt lat="42.71693" lon="0.65932">
        <ele>1485.7002</ele>
        <time>2026-07-05T12:01:11+02:00</time>
      </trkpt>
      <trkpt lat="42.7169" lon="0.65938">
        <ele>1484.9004</ele>
        <time>2026-07-05T12:01:16+02:00</time>
      </trkpt>
      <trkpt lat="42.7169" lon="0.65944">
        <ele>1484.2002</ele>
        <time>2026-07-05T12:01:21+02:00</time>
      </trkpt>
      <trkpt lat="42.71687" lon="0.6595">
        <ele>1486.7002</ele>
        <time>2026-07-05T12:01:26+02:00</time>
      </trkpt>
      <trkpt lat="42.71685" lon="0.65956">
        <ele>1486.1006</ele>
        <time>2026-07-05T12:01:31+02:00</time>
      </trkpt>
      <trkpt lat="42.71683" lon="0.65963">
        <ele>1485.6006</ele>
        <time>2026-07-05T12:01:37+02:00</time>
      </trkpt>
      <trkpt lat="42.71682" lon="0.6597">
        <ele>1485.2002</ele>
        <time>2026-07-05T12:01:42+02:00</time>
      </trkpt>
      <trkpt lat="42.71681" lon="0.65977">
        <ele>1487.6006</ele>
        <time>2026-07-05T12:01:48+02:00</time>
      </trkpt>
      <trkpt lat="42.7168" lon="0.65983">
        <ele>1487.2002</ele>
        <time>2026-07-05T12:01:53+02:00</time>
      </trkpt>
      <trkpt lat="42.71679" lon="0.6599">
        <ele>1486.7998</ele>
        <time>2026-07-05T12:01:59+02:00</time>
      </trkpt>
      <trkpt lat="42.71678" lon="0.65997">
        <ele>1486.7002</ele>
        <time>2026-07-05T12:02:05+02:00</time>
      </trkpt>
      <trkpt lat="42.71677" lon="0.66003">
        <ele>1486.7002</ele>
        <time>2026-07-05T12:02:09+02:00</time>
      </trkpt>
      <trkpt lat="42.71676" lon="0.6601">
        <ele>1486.7002</ele>
        <time>2026-07-05T12:02:14+02:00</time>
      </trkpt>
      <trkpt lat="42.71675" lon="0.66017">
        <ele>1486.9004</ele>
        <time>2026-07-05T12:02:20+02:00</time>
      </trkpt>
      <trkpt lat="42.71676" lon="0.66024">
        <ele>1487.2002</ele>
        <time>2026-07-05T12:02:24+02:00</time>
      </trkpt>
      <trkpt lat="42.71675" lon="0.6603">
        <ele>1489.4004</ele>
        <time>2026-07-05T12:02:31+02:00</time>
      </trkpt>
      <trkpt lat="42.71674" lon="0.66036">
        <ele>1489.4004</ele>
        <time>2026-07-05T12:02:36+02:00</time>
      </trkpt>
      <trkpt lat="42.71671" lon="0.66044">
        <ele>1489.9004</ele>
        <time>2026-07-05T12:02:41+02:00</time>
      </trkpt>
      <trkpt lat="42.7167" lon="0.66051">
        <ele>1490.6006</ele>
        <time>2026-07-05T12:02:47+02:00</time>
      </trkpt>
      <trkpt lat="42.71669" lon="0.66057">
        <ele>1491.2998</ele>
        <time>2026-07-05T12:02:52+02:00</time>
      </trkpt>
      <trkpt lat="42.71667" lon="0.66063">
        <ele>1493.4004</ele>
        <time>2026-07-05T12:02:57+02:00</time>
      </trkpt>
      <trkpt lat="42.71665" lon="0.66068">
        <ele>1494.2002</ele>
        <time>2026-07-05T12:03:03+02:00</time>
      </trkpt>
      <trkpt lat="42.71664" lon="0.66076">
        <ele>1494.9004</ele>
        <time>2026-07-05T12:03:08+02:00</time>
      </trkpt>
      <trkpt lat="42.71662" lon="0.66082">
        <ele>1498</ele>
        <time>2026-07-05T12:03:13+02:00</time>
      </trkpt>
      <trkpt lat="42.71662" lon="0.66088">
        <ele>1498</ele>
        <time>2026-07-05T12:03:18+02:00</time>
      </trkpt>
      <trkpt lat="42.71657" lon="0.66094">
        <ele>1498.9004</ele>
        <time>2026-07-05T12:03:24+02:00</time>
      </trkpt>
      <trkpt lat="42.71655" lon="0.66101">
        <ele>1502.7002</ele>
        <time>2026-07-05T12:03:30+02:00</time>
      </trkpt>
      <trkpt lat="42.71654" lon="0.66108">
        <ele>1503.5</ele>
        <time>2026-07-05T12:03:35+02:00</time>
      </trkpt>
      <trkpt lat="42.71653" lon="0.66114">
        <ele>1503.5</ele>
        <time>2026-07-05T12:03:41+02:00</time>
      </trkpt>
      <trkpt lat="42.71652" lon="0.66122">
        <ele>1504.7002</ele>
        <time>2026-07-05T12:03:46+02:00</time>
      </trkpt>
      <trkpt lat="42.71651" lon="0.66128">
        <ele>1505.7998</ele>
        <time>2026-07-05T12:03:51+02:00</time>
      </trkpt>
      <trkpt lat="42.71648" lon="0.66134">
        <ele>1510.5</ele>
        <time>2026-07-05T12:03:56+02:00</time>
      </trkpt>
      <trkpt lat="42.71647" lon="0.6614">
        <ele>1510.5</ele>
        <time>2026-07-05T12:04:01+02:00</time>
      </trkpt>
      <trkpt lat="42.71643" lon="0.66146">
        <ele>1514.2998</ele>
        <time>2026-07-05T12:04:06+02:00</time>
      </trkpt>
      <trkpt lat="42.71643" lon="0.66152">
        <ele>1513</ele>
        <time>2026-07-05T12:04:11+02:00</time>
      </trkpt>
      <trkpt lat="42.71642" lon="0.66158">
        <ele>1513</ele>
        <time>2026-07-05T12:04:16+02:00</time>
      </trkpt>
      <trkpt lat="42.7164" lon="0.66166">
        <ele>1511.4004</ele>
        <time>2026-07-05T12:04:22+02:00</time>
      </trkpt>
      <trkpt lat="42.7164" lon="0.66173">
        <ele>1509.7998</ele>
        <time>2026-07-05T12:04:28+02:00</time>
      </trkpt>
      <trkpt lat="42.71638" lon="0.66179">
        <ele>1508.2002</ele>
        <time>2026-07-05T12:04:41+02:00</time>
      </trkpt>
      <trkpt lat="42.71636" lon="0.66185">
        <ele>1510.2998</ele>
        <time>2026-07-05T12:04:46+02:00</time>
      </trkpt>
      <trkpt lat="42.71633" lon="0.6619">
        <ele>1510.2998</ele>
        <time>2026-07-05T12:04:51+02:00</time>
      </trkpt>
      <trkpt lat="42.7163" lon="0.66195">
        <ele>1512</ele>
        <time>2026-07-05T12:04:55+02:00</time>
      </trkpt>
      <trkpt lat="42.71627" lon="0.66202">
        <ele>1509.7998</ele>
        <time>2026-07-05T12:05:01+02:00</time>
      </trkpt>
      <trkpt lat="42.71626" lon="0.66209">
        <ele>1509.7998</ele>
        <time>2026-07-05T12:05:07+02:00</time>
      </trkpt>
      <trkpt lat="42.71625" lon="0.66215">
        <ele>1507.5</ele>
        <time>2026-07-05T12:05:14+02:00</time>
      </trkpt>
      <trkpt lat="42.71626" lon="0.66221">
        <ele>1505.2998</ele>
        <time>2026-07-05T12:05:19+02:00</time>
      </trkpt>
      <trkpt lat="42.71625" lon="0.66227">
        <ele>1503.4004</ele>
        <time>2026-07-05T12:05:24+02:00</time>
      </trkpt>
      <trkpt lat="42.71623" lon="0.66234">
        <ele>1507.2998</ele>
        <time>2026-07-05T12:05:29+02:00</time>
      </trkpt>
      <trkpt lat="42.71621" lon="0.6624">
        <ele>1505.2998</ele>
        <time>2026-07-05T12:05:33+02:00</time>
      </trkpt>
      <trkpt lat="42.7162" lon="0.66247">
        <ele>1503.4004</ele>
        <time>2026-07-05T12:05:38+02:00</time>
      </trkpt>
      <trkpt lat="42.71617" lon="0.66253">
        <ele>1507.1006</ele>
        <time>2026-07-05T12:05:48+02:00</time>
      </trkpt>
      <trkpt lat="42.71615" lon="0.66259">
        <ele>1504.9004</ele>
        <time>2026-07-05T12:06:26+02:00</time>
      </trkpt>
      <trkpt lat="42.71611" lon="0.66264">
        <ele>1507.4004</ele>
        <time>2026-07-05T12:06:32+02:00</time>
      </trkpt>
      <trkpt lat="42.71608" lon="0.66269">
        <ele>1507.4004</ele>
        <time>2026-07-05T12:06:37+02:00</time>
      </trkpt>
      <trkpt lat="42.71606" lon="0.66274">
        <ele>1506.4004</ele>
        <time>2026-07-05T12:06:42+02:00</time>
      </trkpt>
      <trkpt lat="42.71605" lon="0.66281">
        <ele>1508.1006</ele>
        <time>2026-07-05T12:06:47+02:00</time>
      </trkpt>
      <trkpt lat="42.71602" lon="0.66287">
        <ele>1508.1006</ele>
        <time>2026-07-05T12:06:53+02:00</time>
      </trkpt>
      <trkpt lat="42.71601" lon="0.66293">
        <ele>1507</ele>
        <time>2026-07-05T12:07:02+02:00</time>
      </trkpt>
      <trkpt lat="42.71602" lon="0.663">
        <ele>1507.1006</ele>
        <time>2026-07-05T12:07:28+02:00</time>
      </trkpt>
      <trkpt lat="42.71606" lon="0.66303">
        <ele>1507.1006</ele>
        <time>2026-07-05T12:07:40+02:00</time>
      </trkpt>
      <trkpt lat="42.71611" lon="0.66307">
        <ele>1508.4004</ele>
        <time>2026-07-05T12:07:42+02:00</time>
      </trkpt>
      <trkpt lat="42.71615" lon="0.66303">
        <ele>1506.7002</ele>
        <time>2026-07-05T12:07:46+02:00</time>
      </trkpt>
      <trkpt lat="42.71618" lon="0.66298">
        <ele>1506.7002</ele>
        <time>2026-07-05T12:07:51+02:00</time>
      </trkpt>
      <trkpt lat="42.7162" lon="0.66292">
        <ele>1505.7002</ele>
        <time>2026-07-05T12:07:55+02:00</time>
      </trkpt>
      <trkpt lat="42.71624" lon="0.66288">
        <ele>1505.7002</ele>
        <time>2026-07-05T12:08:00+02:00</time>
      </trkpt>
      <trkpt lat="42.71625" lon="0.66282">
        <ele>1504.4004</ele>
        <time>2026-07-05T12:08:07+02:00</time>
      </trkpt>
      <trkpt lat="42.71628" lon="0.66275">
        <ele>1502.2998</ele>
        <time>2026-07-05T12:08:12+02:00</time>
      </trkpt>
      <trkpt lat="42.7163" lon="0.66269">
        <ele>1500.2998</ele>
        <time>2026-07-05T12:08:17+02:00</time>
      </trkpt>
      <trkpt lat="42.71632" lon="0.66264">
        <ele>1500.5</ele>
        <time>2026-07-05T12:08:22+02:00</time>
      </trkpt>
      <trkpt lat="42.71635" lon="0.66257">
        <ele>1499.2002</ele>
        <time>2026-07-05T12:08:28+02:00</time>
      </trkpt>
      <trkpt lat="42.71638" lon="0.66251">
        <ele>1498.5</ele>
        <time>2026-07-05T12:08:34+02:00</time>
      </trkpt>
      <trkpt lat="42.7164" lon="0.66244">
        <ele>1498.2998</ele>
        <time>2026-07-05T12:08:40+02:00</time>
      </trkpt>
      <trkpt lat="42.71642" lon="0.66237">
        <ele>1498.2998</ele>
        <time>2026-07-05T12:08:45+02:00</time>
      </trkpt>
      <trkpt lat="42.71646" lon="0.66233">
        <ele>1498.2998</ele>
        <time>2026-07-05T12:08:50+02:00</time>
      </trkpt>
      <trkpt lat="42.71648" lon="0.66228">
        <ele>1498.2998</ele>
        <time>2026-07-05T12:08:54+02:00</time>
      </trkpt>
      <trkpt lat="42.71651" lon="0.66222">
        <ele>1498.4004</ele>
        <time>2026-07-05T12:09:00+02:00</time>
      </trkpt>
      <trkpt lat="42.71654" lon="0.66216">
        <ele>1498.4004</ele>
        <time>2026-07-05T12:09:06+02:00</time>
      </trkpt>
      <trkpt lat="42.71657" lon="0.6621">
        <ele>1498.2998</ele>
        <time>2026-07-05T12:09:21+02:00</time>
      </trkpt>
      <trkpt lat="42.71659" lon="0.66205">
        <ele>1498.1006</ele>
        <time>2026-07-05T12:09:26+02:00</time>
      </trkpt>
      <trkpt lat="42.7166" lon="0.66198">
        <ele>1498.4004</ele>
        <time>2026-07-05T12:09:31+02:00</time>
      </trkpt>
      <trkpt lat="42.71663" lon="0.66193">
        <ele>1499.5</ele>
        <time>2026-07-05T12:09:36+02:00</time>
      </trkpt>
      <trkpt lat="42.71666" lon="0.66187">
        <ele>1499.5</ele>
        <time>2026-07-05T12:09:41+02:00</time>
      </trkpt>
      <trkpt lat="42.71669" lon="0.66182">
        <ele>1500.1006</ele>
        <time>2026-07-05T12:09:46+02:00</time>
      </trkpt>
      <trkpt lat="42.71672" lon="0.66176">
        <ele>1500</ele>
        <time>2026-07-05T12:09:50+02:00</time>
      </trkpt>
      <trkpt lat="42.71675" lon="0.66171">
        <ele>1499.2998</ele>
        <time>2026-07-05T12:09:55+02:00</time>
      </trkpt>
      <trkpt lat="42.71679" lon="0.66165">
        <ele>1498.6006</ele>
        <time>2026-07-05T12:10:00+02:00</time>
      </trkpt>
      <trkpt lat="42.71682" lon="0.66161">
        <ele>1498.2998</ele>
        <time>2026-07-05T12:10:04+02:00</time>
      </trkpt>
      <trkpt lat="42.71684" lon="0.66155">
        <ele>1497.2002</ele>
        <time>2026-07-05T12:10:09+02:00</time>
      </trkpt>
      <trkpt lat="42.71688" lon="0.66151">
        <ele>1497</ele>
        <time>2026-07-05T12:10:14+02:00</time>
      </trkpt>
      <trkpt lat="42.71691" lon="0.66144">
        <ele>1495.7998</ele>
        <time>2026-07-05T12:10:19+02:00</time>
      </trkpt>
      <trkpt lat="42.71693" lon="0.66138">
        <ele>1494.5</ele>
        <time>2026-07-05T12:10:24+02:00</time>
      </trkpt>
      <trkpt lat="42.71697" lon="0.66134">
        <ele>1494</ele>
        <time>2026-07-05T12:10:28+02:00</time>
      </trkpt>
      <trkpt lat="42.71702" lon="0.6613">
        <ele>1492.2002</ele>
        <time>2026-07-05T12:10:33+02:00</time>
      </trkpt>
      <trkpt lat="42.71706" lon="0.66126">
        <ele>1492.2002</ele>
        <time>2026-07-05T12:10:37+02:00</time>
      </trkpt>
      <trkpt lat="42.7171" lon="0.66121">
        <ele>1490.5</ele>
        <time>2026-07-05T12:10:42+02:00</time>
      </trkpt>
      <trkpt lat="42.71714" lon="0.66118">
        <ele>1490.7002</ele>
        <time>2026-07-05T12:10:46+02:00</time>
      </trkpt>
      <trkpt lat="42.71718" lon="0.66113">
        <ele>1489</ele>
        <time>2026-07-05T12:10:51+02:00</time>
      </trkpt>
      <trkpt lat="42.7172" lon="0.66107">
        <ele>1489.4004</ele>
        <time>2026-07-05T12:10:55+02:00</time>
      </trkpt>
      <trkpt lat="42.71723" lon="0.66103">
        <ele>1487.7002</ele>
        <time>2026-07-05T12:11:00+02:00</time>
      </trkpt>
      <trkpt lat="42.71725" lon="0.66095">
        <ele>1486.2002</ele>
        <time>2026-07-05T12:11:05+02:00</time>
      </trkpt>
      <trkpt lat="42.71728" lon="0.6609">
        <ele>1486.6006</ele>
        <time>2026-07-05T12:11:09+02:00</time>
      </trkpt>
      <trkpt lat="42.71732" lon="0.66085">
        <ele>1485.2002</ele>
        <time>2026-07-05T12:11:13+02:00</time>
      </trkpt>
      <trkpt lat="42.71735" lon="0.6608">
        <ele>1484.2998</ele>
        <time>2026-07-05T12:11:19+02:00</time>
      </trkpt>
      <trkpt lat="42.71739" lon="0.66076">
        <ele>1484.6006</ele>
        <time>2026-07-05T12:11:23+02:00</time>
      </trkpt>
      <trkpt lat="42.71744" lon="0.66071">
        <ele>1483.2002</ele>
        <time>2026-07-05T12:11:34+02:00</time>
      </trkpt>
      <trkpt lat="42.71747" lon="0.66067">
        <ele>1483.4004</ele>
        <time>2026-07-05T12:11:39+02:00</time>
      </trkpt>
      <trkpt lat="42.71753" lon="0.66063">
        <ele>1482.2998</ele>
        <time>2026-07-05T12:11:44+02:00</time>
      </trkpt>
      <trkpt lat="42.71756" lon="0.66058">
        <ele>1482.2998</ele>
        <time>2026-07-05T12:11:48+02:00</time>
      </trkpt>
      <trkpt lat="42.71759" lon="0.66052">
        <ele>1481.2998</ele>
        <time>2026-07-05T12:11:53+02:00</time>
      </trkpt>
      <trkpt lat="42.71763" lon="0.66046">
        <ele>1479.7002</ele>
        <time>2026-07-05T12:11:58+02:00</time>
      </trkpt>
      <trkpt lat="42.71767" lon="0.66042">
        <ele>1480.4004</ele>
        <time>2026-07-05T12:12:03+02:00</time>
      </trkpt>
      <trkpt lat="42.7177" lon="0.66037">
        <ele>1479.6006</ele>
        <time>2026-07-05T12:12:08+02:00</time>
      </trkpt>
      <trkpt lat="42.71772" lon="0.6603">
        <ele>1479.6006</ele>
        <time>2026-07-05T12:12:13+02:00</time>
      </trkpt>
      <trkpt lat="42.71775" lon="0.66025">
        <ele>1478</ele>
        <time>2026-07-05T12:12:18+02:00</time>
      </trkpt>
      <trkpt lat="42.71779" lon="0.66019">
        <ele>1477.2002</ele>
        <time>2026-07-05T12:12:22+02:00</time>
      </trkpt>
      <trkpt lat="42.71783" lon="0.66015">
        <ele>1478.1006</ele>
        <time>2026-07-05T12:12:27+02:00</time>
      </trkpt>
      <trkpt lat="42.71784" lon="0.66008">
        <ele>1476.4004</ele>
        <time>2026-07-05T12:12:31+02:00</time>
      </trkpt>
      <trkpt lat="42.71788" lon="0.66005">
        <ele>1476.4004</ele>
        <time>2026-07-05T12:12:37+02:00</time>
      </trkpt>
      <trkpt lat="42.7179" lon="0.65999">
        <ele>1475.7998</ele>
        <time>2026-07-05T12:12:42+02:00</time>
      </trkpt>
      <trkpt lat="42.71792" lon="0.65992">
        <ele>1474.2998</ele>
        <time>2026-07-05T12:12:47+02:00</time>
      </trkpt>
      <trkpt lat="42.71795" lon="0.65986">
        <ele>1472.9004</ele>
        <time>2026-07-05T12:12:53+02:00</time>
      </trkpt>
      <trkpt lat="42.71798" lon="0.65981">
        <ele>1474</ele>
        <time>2026-07-05T12:12:57+02:00</time>
      </trkpt>
      <trkpt lat="42.71802" lon="0.65977">
        <ele>1473.6006</ele>
        <time>2026-07-05T12:13:02+02:00</time>
      </trkpt>
      <trkpt lat="42.71805" lon="0.65968">
        <ele>1472.1006</ele>
        <time>2026-07-05T12:13:14+02:00</time>
      </trkpt>
      <trkpt lat="42.71806" lon="0.65961">
        <ele>1472.1006</ele>
        <time>2026-07-05T12:14:01+02:00</time>
      </trkpt>
      <trkpt lat="42.71807" lon="0.65954">
        <ele>1470.7998</ele>
        <time>2026-07-05T12:14:07+02:00</time>
      </trkpt>
      <trkpt lat="42.71809" lon="0.65948">
        <ele>1470.4004</ele>
        <time>2026-07-05T12:14:12+02:00</time>
      </trkpt>
      <trkpt lat="42.71813" lon="0.65944">
        <ele>1470.4004</ele>
        <time>2026-07-05T12:14:16+02:00</time>
      </trkpt>
      <trkpt lat="42.71814" lon="0.65938">
        <ele>1470</ele>
        <time>2026-07-05T12:14:20+02:00</time>
      </trkpt>
      <trkpt lat="42.71816" lon="0.65932">
        <ele>1468.7998</ele>
        <time>2026-07-05T12:14:26+02:00</time>
      </trkpt>
      <trkpt lat="42.7182" lon="0.65926">
        <ele>1467.6006</ele>
        <time>2026-07-05T12:14:31+02:00</time>
      </trkpt>
      <trkpt lat="42.71823" lon="0.6592">
        <ele>1468.4004</ele>
        <time>2026-07-05T12:14:35+02:00</time>
      </trkpt>
      <trkpt lat="42.71825" lon="0.65914">
        <ele>1467.1006</ele>
        <time>2026-07-05T12:14:41+02:00</time>
      </trkpt>
      <trkpt lat="42.71829" lon="0.65909">
        <ele>1466.5</ele>
        <time>2026-07-05T12:14:46+02:00</time>
      </trkpt>
      <trkpt lat="42.71834" lon="0.65906">
        <ele>1467.2998</ele>
        <time>2026-07-05T12:14:51+02:00</time>
      </trkpt>
      <trkpt lat="42.71837" lon="0.659">
        <ele>1465.7002</ele>
        <time>2026-07-05T12:14:58+02:00</time>
      </trkpt>
      <trkpt lat="42.7184" lon="0.65894">
        <ele>1466.5</ele>
        <time>2026-07-05T12:15:05+02:00</time>
      </trkpt>
      <trkpt lat="42.71844" lon="0.6589">
        <ele>1464.7998</ele>
        <time>2026-07-05T12:15:09+02:00</time>
      </trkpt>
      <trkpt lat="42.71848" lon="0.65885">
        <ele>1465.5</ele>
        <time>2026-07-05T12:15:13+02:00</time>
      </trkpt>
      <trkpt lat="42.71852" lon="0.65881">
        <ele>1464.5</ele>
        <time>2026-07-05T12:15:17+02:00</time>
      </trkpt>
      <trkpt lat="42.71855" lon="0.65876">
        <ele>1464.5</ele>
        <time>2026-07-05T12:15:23+02:00</time>
      </trkpt>
      <trkpt lat="42.71858" lon="0.6587">
        <ele>1463.5</ele>
        <time>2026-07-05T12:15:29+02:00</time>
      </trkpt>
      <trkpt lat="42.71853" lon="0.65871">
        <ele>1462.7998</ele>
        <time>2026-07-05T12:15:38+02:00</time>
      </trkpt>
      <trkpt lat="42.71848" lon="0.65871">
        <ele>1462.2998</ele>
        <time>2026-07-05T12:15:42+02:00</time>
      </trkpt>
      <trkpt lat="42.71844" lon="0.65869">
        <ele>1461.7002</ele>
        <time>2026-07-05T12:15:45+02:00</time>
      </trkpt>
      <trkpt lat="42.71839" lon="0.65869">
        <ele>1461.2998</ele>
        <time>2026-07-05T12:15:49+02:00</time>
      </trkpt>
      <trkpt lat="42.71833" lon="0.65872">
        <ele>1461.2998</ele>
        <time>2026-07-05T12:15:53+02:00</time>
      </trkpt>
      <trkpt lat="42.71828" lon="0.65874">
        <ele>1461</ele>
        <time>2026-07-05T12:15:58+02:00</time>
      </trkpt>
      <trkpt lat="42.71824" lon="0.65872">
        <ele>1461.1006</ele>
        <time>2026-07-05T12:16:06+02:00</time>
      </trkpt>
      <trkpt lat="42.71825" lon="0.65866">
        <ele>1460.2002</ele>
        <time>2026-07-05T12:16:18+02:00</time>
      </trkpt>
      <trkpt lat="42.71829" lon="0.65862">
        <ele>1459.9004</ele>
        <time>2026-07-05T12:16:23+02:00</time>
      </trkpt>
      <trkpt lat="42.71832" lon="0.65856">
        <ele>1458.9004</ele>
        <time>2026-07-05T12:16:27+02:00</time>
      </trkpt>
      <trkpt lat="42.71837" lon="0.65853">
        <ele>1458.9004</ele>
        <time>2026-07-05T12:16:34+02:00</time>
      </trkpt>
      <trkpt lat="42.71841" lon="0.6585">
        <ele>1459.2002</ele>
        <time>2026-07-05T12:16:39+02:00</time>
      </trkpt>
      <trkpt lat="42.71846" lon="0.65846">
        <ele>1458.1006</ele>
        <time>2026-07-05T12:16:44+02:00</time>
      </trkpt>
      <trkpt lat="42.7185" lon="0.65845">
        <ele>1458.1006</ele>
        <time>2026-07-05T12:16:48+02:00</time>
      </trkpt>
      <trkpt lat="42.71855" lon="0.65843">
        <ele>1458.2002</ele>
        <time>2026-07-05T12:16:53+02:00</time>
      </trkpt>
      <trkpt lat="42.71859" lon="0.65842">
        <ele>1458.2002</ele>
        <time>2026-07-05T12:16:58+02:00</time>
      </trkpt>
      <trkpt lat="42.71864" lon="0.65839">
        <ele>1456.4004</ele>
        <time>2026-07-05T12:17:03+02:00</time>
      </trkpt>
      <trkpt lat="42.7187" lon="0.65836">
        <ele>1456.4004</ele>
        <time>2026-07-05T12:17:07+02:00</time>
      </trkpt>
      <trkpt lat="42.71874" lon="0.65833">
        <ele>1456.5</ele>
        <time>2026-07-05T12:17:13+02:00</time>
      </trkpt>
      <trkpt lat="42.71879" lon="0.65831">
        <ele>1454.6006</ele>
        <time>2026-07-05T12:17:18+02:00</time>
      </trkpt>
      <trkpt lat="42.71883" lon="0.65828">
        <ele>1454.6006</ele>
        <time>2026-07-05T12:17:23+02:00</time>
      </trkpt>
      <trkpt lat="42.71888" lon="0.65826">
        <ele>1455</ele>
        <time>2026-07-05T12:17:32+02:00</time>
      </trkpt>
      <trkpt lat="42.71891" lon="0.65821">
        <ele>1453.1006</ele>
        <time>2026-07-05T12:17:37+02:00</time>
      </trkpt>
      <trkpt lat="42.71896" lon="0.6582">
        <ele>1453.1006</ele>
        <time>2026-07-05T12:17:41+02:00</time>
      </trkpt>
      <trkpt lat="42.719" lon="0.65818">
        <ele>1453.5</ele>
        <time>2026-07-05T12:17:45+02:00</time>
      </trkpt>
      <trkpt lat="42.71904" lon="0.65814">
        <ele>1451.2998</ele>
        <time>2026-07-05T12:17:50+02:00</time>
      </trkpt>
      <trkpt lat="42.71909" lon="0.65812">
        <ele>1451.6006</ele>
        <time>2026-07-05T12:17:54+02:00</time>
      </trkpt>
      <trkpt lat="42.71914" lon="0.6581">
        <ele>1451.6006</ele>
        <time>2026-07-05T12:17:59+02:00</time>
      </trkpt>
      <trkpt lat="42.71918" lon="0.65806">
        <ele>1449</ele>
        <time>2026-07-05T12:18:03+02:00</time>
      </trkpt>
      <trkpt lat="42.71922" lon="0.65803">
        <ele>1449.4004</ele>
        <time>2026-07-05T12:18:07+02:00</time>
      </trkpt>
      <trkpt lat="42.71925" lon="0.65798">
        <ele>1446.5</ele>
        <time>2026-07-05T12:18:10+02:00</time>
      </trkpt>
      <trkpt lat="42.71929" lon="0.65793">
        <ele>1446.9004</ele>
        <time>2026-07-05T12:18:15+02:00</time>
      </trkpt>
      <trkpt lat="42.71933" lon="0.65787">
        <ele>1443.7998</ele>
        <time>2026-07-05T12:18:19+02:00</time>
      </trkpt>
      <trkpt lat="42.71937" lon="0.65783">
        <ele>1444.2002</ele>
        <time>2026-07-05T12:18:23+02:00</time>
      </trkpt>
      <trkpt lat="42.71941" lon="0.6578">
        <ele>1441.2002</ele>
        <time>2026-07-05T12:18:29+02:00</time>
      </trkpt>
      <trkpt lat="42.71944" lon="0.65773">
        <ele>1441.2002</ele>
        <time>2026-07-05T12:18:35+02:00</time>
      </trkpt>
      <trkpt lat="42.71948" lon="0.6577">
        <ele>1437.5</ele>
        <time>2026-07-05T12:18:39+02:00</time>
      </trkpt>
      <trkpt lat="42.71952" lon="0.65764">
        <ele>1437.5</ele>
        <time>2026-07-05T12:18:44+02:00</time>
      </trkpt>
      <trkpt lat="42.71957" lon="0.65759">
        <ele>1432.5</ele>
        <time>2026-07-05T12:18:50+02:00</time>
      </trkpt>
      <trkpt lat="42.71962" lon="0.65755">
        <ele>1432.7998</ele>
        <time>2026-07-05T12:18:55+02:00</time>
      </trkpt>
      <trkpt lat="42.71966" lon="0.65752">
        <ele>1429.5</ele>
        <time>2026-07-05T12:18:59+02:00</time>
      </trkpt>
      <trkpt lat="42.71972" lon="0.65748">
        <ele>1431.2002</ele>
        <time>2026-07-05T12:19:04+02:00</time>
      </trkpt>
      <trkpt lat="42.71976" lon="0.65745">
        <ele>1427.6006</ele>
        <time>2026-07-05T12:19:09+02:00</time>
      </trkpt>
      <trkpt lat="42.7198" lon="0.65741">
        <ele>1428.6006</ele>
        <time>2026-07-05T12:19:15+02:00</time>
      </trkpt>
      <trkpt lat="42.71984" lon="0.65737">
        <ele>1424.9004</ele>
        <time>2026-07-05T12:19:19+02:00</time>
      </trkpt>
      <trkpt lat="42.71988" lon="0.65733">
        <ele>1425.4004</ele>
        <time>2026-07-05T12:19:23+02:00</time>
      </trkpt>
      <trkpt lat="42.71992" lon="0.65727">
        <ele>1422.2002</ele>
        <time>2026-07-05T12:19:27+02:00</time>
      </trkpt>
      <trkpt lat="42.71995" lon="0.65722">
        <ele>1422.2002</ele>
        <time>2026-07-05T12:19:31+02:00</time>
      </trkpt>
      <trkpt lat="42.71998" lon="0.65717">
        <ele>1419.7002</ele>
        <time>2026-07-05T12:19:35+02:00</time>
      </trkpt>
      <trkpt lat="42.72001" lon="0.65712">
        <ele>1416.7998</ele>
        <time>2026-07-05T12:19:39+02:00</time>
      </trkpt>
      <trkpt lat="42.72002" lon="0.65705">
        <ele>1416.7998</ele>
        <time>2026-07-05T12:19:44+02:00</time>
      </trkpt>
      <trkpt lat="42.72002" lon="0.65698">
        <ele>1414</ele>
        <time>2026-07-05T12:19:48+02:00</time>
      </trkpt>
      <trkpt lat="42.72003" lon="0.65692">
        <ele>1411.9004</ele>
        <time>2026-07-05T12:19:52+02:00</time>
      </trkpt>
      <trkpt lat="42.72004" lon="0.65685">
        <ele>1409.5</ele>
        <time>2026-07-05T12:19:56+02:00</time>
      </trkpt>
      <trkpt lat="42.72005" lon="0.65679">
        <ele>1409.5</ele>
        <time>2026-07-05T12:20:00+02:00</time>
      </trkpt>
      <trkpt lat="42.72008" lon="0.65674">
        <ele>1407.4004</ele>
        <time>2026-07-05T12:20:04+02:00</time>
      </trkpt>
      <trkpt lat="42.72011" lon="0.65668">
        <ele>1406.1006</ele>
        <time>2026-07-05T12:20:09+02:00</time>
      </trkpt>
      <trkpt lat="42.72014" lon="0.65662">
        <ele>1406.1006</ele>
        <time>2026-07-05T12:20:14+02:00</time>
      </trkpt>
      <trkpt lat="42.72016" lon="0.65656">
        <ele>1405.1006</ele>
        <time>2026-07-05T12:20:19+02:00</time>
      </trkpt>
      <trkpt lat="42.7202" lon="0.65651">
        <ele>1403.6006</ele>
        <time>2026-07-05T12:20:24+02:00</time>
      </trkpt>
      <trkpt lat="42.72023" lon="0.65645">
        <ele>1404.1006</ele>
        <time>2026-07-05T12:20:28+02:00</time>
      </trkpt>
      <trkpt lat="42.72025" lon="0.65639">
        <ele>1402.6006</ele>
        <time>2026-07-05T12:20:33+02:00</time>
      </trkpt>
      <trkpt lat="42.72027" lon="0.65633">
        <ele>1401.1006</ele>
        <time>2026-07-05T12:20:39+02:00</time>
      </trkpt>
      <trkpt lat="42.7203" lon="0.65626">
        <ele>1401.7002</ele>
        <time>2026-07-05T12:20:44+02:00</time>
      </trkpt>
      <trkpt lat="42.72032" lon="0.6562">
        <ele>1400.2998</ele>
        <time>2026-07-05T12:20:56+02:00</time>
      </trkpt>
      <trkpt lat="42.72035" lon="0.65615">
        <ele>1399.7002</ele>
        <time>2026-07-05T12:21:01+02:00</time>
      </trkpt>
      <trkpt lat="42.72038" lon="0.65608">
        <ele>1398.5</ele>
        <time>2026-07-05T12:21:06+02:00</time>
      </trkpt>
      <trkpt lat="42.72041" lon="0.65602">
        <ele>1398.5</ele>
        <time>2026-07-05T12:21:11+02:00</time>
      </trkpt>
      <trkpt lat="42.72044" lon="0.65596">
        <ele>1397.9004</ele>
        <time>2026-07-05T12:21:17+02:00</time>
      </trkpt>
      <trkpt lat="42.72048" lon="0.65591">
        <ele>1397.2998</ele>
        <time>2026-07-05T12:21:22+02:00</time>
      </trkpt>
      <trkpt lat="42.72049" lon="0.65585">
        <ele>1397.2998</ele>
        <time>2026-07-05T12:21:30+02:00</time>
      </trkpt>
      <trkpt lat="42.72052" lon="0.65579">
        <ele>1396.1006</ele>
        <time>2026-07-05T12:21:36+02:00</time>
      </trkpt>
      <trkpt lat="42.72053" lon="0.65572">
        <ele>1395.1006</ele>
        <time>2026-07-05T12:21:41+02:00</time>
      </trkpt>
      <trkpt lat="42.72055" lon="0.65567">
        <ele>1395.6006</ele>
        <time>2026-07-05T12:21:47+02:00</time>
      </trkpt>
      <trkpt lat="42.72059" lon="0.65562">
        <ele>1394.6006</ele>
        <time>2026-07-05T12:21:51+02:00</time>
      </trkpt>
      <trkpt lat="42.72062" lon="0.65557">
        <ele>1394.2002</ele>
        <time>2026-07-05T12:21:56+02:00</time>
      </trkpt>
      <trkpt lat="42.72066" lon="0.65553">
        <ele>1394.2002</ele>
        <time>2026-07-05T12:22:01+02:00</time>
      </trkpt>
      <trkpt lat="42.7207" lon="0.65548">
        <ele>1393.9004</ele>
        <time>2026-07-05T12:22:06+02:00</time>
      </trkpt>
      <trkpt lat="42.72073" lon="0.65543">
        <ele>1394.5</ele>
        <time>2026-07-05T12:22:10+02:00</time>
      </trkpt>
      <trkpt lat="42.72077" lon="0.65539">
        <ele>1393.9004</ele>
        <time>2026-07-05T12:22:15+02:00</time>
      </trkpt>
      <trkpt lat="42.72079" lon="0.65533">
        <ele>1394.6006</ele>
        <time>2026-07-05T12:22:19+02:00</time>
      </trkpt>
      <trkpt lat="42.72082" lon="0.65529">
        <ele>1393.9004</ele>
        <time>2026-07-05T12:22:23+02:00</time>
      </trkpt>
      <trkpt lat="42.72085" lon="0.65524">
        <ele>1394.7002</ele>
        <time>2026-07-05T12:22:28+02:00</time>
      </trkpt>
      <trkpt lat="42.72087" lon="0.65519">
        <ele>1393.9004</ele>
        <time>2026-07-05T12:22:32+02:00</time>
      </trkpt>
      <trkpt lat="42.72089" lon="0.65512">
        <ele>1393.2002</ele>
        <time>2026-07-05T12:23:37+02:00</time>
      </trkpt>
      <trkpt lat="42.72094" lon="0.65511">
        <ele>1393.7998</ele>
        <time>2026-07-05T12:23:51+02:00</time>
      </trkpt>
      <trkpt lat="42.72097" lon="0.65505">
        <ele>1392.9004</ele>
        <time>2026-07-05T12:23:59+02:00</time>
      </trkpt>
      <trkpt lat="42.72099" lon="0.65499">
        <ele>1393.4004</ele>
        <time>2026-07-05T12:24:10+02:00</time>
      </trkpt>
      <trkpt lat="42.721" lon="0.65493">
        <ele>1392.6006</ele>
        <time>2026-07-05T12:24:18+02:00</time>
      </trkpt>
      <trkpt lat="42.72102" lon="0.65487">
        <ele>1391.7002</ele>
        <time>2026-07-05T12:24:27+02:00</time>
      </trkpt>
      <trkpt lat="42.72106" lon="0.65483">
        <ele>1392.4004</ele>
        <time>2026-07-05T12:25:38+02:00</time>
      </trkpt>
      <trkpt lat="42.72108" lon="0.65477">
        <ele>1391.4004</ele>
        <time>2026-07-05T12:26:31+02:00</time>
      </trkpt>
      <trkpt lat="42.7211" lon="0.6547">
        <ele>1390.1006</ele>
        <time>2026-07-05T12:26:40+02:00</time>
      </trkpt>
      <trkpt lat="42.72112" lon="0.65464">
        <ele>1390.4004</ele>
        <time>2026-07-05T12:26:47+02:00</time>
      </trkpt>
      <trkpt lat="42.72115" lon="0.65459">
        <ele>1388.7002</ele>
        <time>2026-07-05T12:26:52+02:00</time>
      </trkpt>
      <trkpt lat="42.72119" lon="0.65455">
        <ele>1388.9004</ele>
        <time>2026-07-05T12:26:59+02:00</time>
      </trkpt>
      <trkpt lat="42.72123" lon="0.6545">
        <ele>1387.2002</ele>
        <time>2026-07-05T12:27:05+02:00</time>
      </trkpt>
      <trkpt lat="42.72128" lon="0.6545">
        <ele>1387.4004</ele>
        <time>2026-07-05T12:28:57+02:00</time>
      </trkpt>
      <trkpt lat="42.72123" lon="0.65448">
        <ele>1387.4004</ele>
        <time>2026-07-05T12:29:44+02:00</time>
      </trkpt>
      <trkpt lat="42.72119" lon="0.6545">
        <ele>1387.2002</ele>
        <time>2026-07-05T12:33:38+02:00</time>
      </trkpt>
      <trkpt lat="42.72116" lon="0.65455">
        <ele>1388.7002</ele>
        <time>2026-07-05T12:33:46+02:00</time>
      </trkpt>
      <trkpt lat="42.72112" lon="0.6546">
        <ele>1388.7002</ele>
        <time>2026-07-05T12:33:51+02:00</time>
      </trkpt>
      <trkpt lat="42.72109" lon="0.65465">
        <ele>1390.1006</ele>
        <time>2026-07-05T12:33:57+02:00</time>
      </trkpt>
      <trkpt lat="42.72107" lon="0.65471">
        <ele>1390.1006</ele>
        <time>2026-07-05T12:34:07+02:00</time>
      </trkpt>
      <trkpt lat="42.72106" lon="0.65478">
        <ele>1391.4004</ele>
        <time>2026-07-05T12:34:41+02:00</time>
      </trkpt>
      <trkpt lat="42.72108" lon="0.65483">
        <ele>1392.4004</ele>
        <time>2026-07-05T12:34:46+02:00</time>
      </trkpt>
      <trkpt lat="42.72111" lon="0.65476">
        <ele>1391.9004</ele>
        <time>2026-07-05T12:34:53+02:00</time>
      </trkpt>
      <trkpt lat="42.72109" lon="0.65481">
        <ele>1392.4004</ele>
        <time>2026-07-05T12:41:04+02:00</time>
      </trkpt>
      <trkpt lat="42.72108" lon="0.65489">
        <ele>1393.2002</ele>
        <time>2026-07-05T12:41:11+02:00</time>
      </trkpt>
      <trkpt lat="42.7211" lon="0.65497">
        <ele>1393.2002</ele>
        <time>2026-07-05T12:41:14+02:00</time>
      </trkpt>
      <trkpt lat="42.7211" lon="0.65485">
        <ele>1392.4004</ele>
        <time>2026-07-05T12:41:19+02:00</time>
      </trkpt>
      <trkpt lat="42.72113" lon="0.65491">
        <ele>1393.7002</ele>
        <time>2026-07-05T12:41:24+02:00</time>
      </trkpt>
      <trkpt lat="42.72118" lon="0.65492">
        <ele>1394.1006</ele>
        <time>2026-07-05T12:41:26+02:00</time>
      </trkpt>
      <trkpt lat="42.72124" lon="0.6549">
        <ele>1394.2002</ele>
        <time>2026-07-05T12:42:07+02:00</time>
      </trkpt>
      <trkpt lat="42.72119" lon="0.65493">
        <ele>1394.1006</ele>
        <time>2026-07-05T12:42:18+02:00</time>
      </trkpt>
      <trkpt lat="42.72124" lon="0.6549">
        <ele>1394.2002</ele>
        <time>2026-07-05T12:42:41+02:00</time>
      </trkpt>
      <trkpt lat="42.72126" lon="0.65497">
        <ele>1394.2002</ele>
        <time>2026-07-05T12:42:44+02:00</time>
      </trkpt>
      <trkpt lat="42.72117" lon="0.65495">
        <ele>1394.1006</ele>
        <time>2026-07-05T12:42:47+02:00</time>
      </trkpt>
      <trkpt lat="42.7212" lon="0.65491">
        <ele>1394.1006</ele>
        <time>2026-07-05T12:42:54+02:00</time>
      </trkpt>
      <trkpt lat="42.72115" lon="0.65489">
        <ele>1392.9004</ele>
        <time>2026-07-05T12:43:07+02:00</time>
      </trkpt>
      <trkpt lat="42.72109" lon="0.65486">
        <ele>1392.4004</ele>
        <time>2026-07-05T12:43:17+02:00</time>
      </trkpt>
      <trkpt lat="42.72106" lon="0.6548">
        <ele>1391.4004</ele>
        <time>2026-07-05T12:43:20+02:00</time>
      </trkpt>
      <trkpt lat="42.72111" lon="0.65482">
        <ele>1392.9004</ele>
        <time>2026-07-05T12:43:22+02:00</time>
      </trkpt>
      <trkpt lat="42.72111" lon="0.65476">
        <ele>1391.9004</ele>
        <time>2026-07-05T12:45:46+02:00</time>
      </trkpt>
    </trkseg>
  </trk>
</gpx>